<?xml version="1.0" encoding="UTF-8" standalone="no" ?>
<gpx xmlns="http://www.topografix.com/GPX/1/1" xmlns:xsi="http://www.w3.org/2001/XMLSchema-instance" xsi:schemaLocation="http://www.topografix.com/GPX/1/1 http://www.topografix.com/GPX/1/1/gpx.xsd" version="1.1" creator="VisuGPX - https://www.visugpx.com">
  <metadata>
    <name>croix fry!</name>
    <desc><![CDATA[ascension de la croix fry]]></desc>
  </metadata>
  <trk>
    <name><![CDATA[croix fry!_1]]></name>
    <trkseg>
      <trkpt lat="45.88389" lon="6.32244">
        <ele>592</ele>
        <time>2014-08-20T08:05:00Z</time>
      </trkpt>
      <trkpt lat="45.88388" lon="6.32246">
        <ele>592</ele>
        <time>2014-08-20T08:05:07Z</time>
      </trkpt>
      <trkpt lat="45.88387" lon="6.32248">
        <ele>592</ele>
        <time>2014-08-20T08:05:08Z</time>
      </trkpt>
      <trkpt lat="45.88387" lon="6.32247">
        <ele>592</ele>
        <time>2014-08-20T08:05:16Z</time>
      </trkpt>
      <trkpt lat="45.88385" lon="6.32249">
        <ele>592</ele>
        <time>2014-08-20T08:05:26Z</time>
      </trkpt>
      <trkpt lat="45.88384" lon="6.32252">
        <ele>592</ele>
        <time>2014-08-20T08:05:36Z</time>
      </trkpt>
      <trkpt lat="45.88385" lon="6.32251">
        <ele>592</ele>
        <time>2014-08-20T08:05:46Z</time>
      </trkpt>
      <trkpt lat="45.88385" lon="6.3225">
        <ele>592</ele>
        <time>2014-08-20T08:05:56Z</time>
      </trkpt>
      <trkpt lat="45.88386" lon="6.32248">
        <ele>592</ele>
        <time>2014-08-20T08:06:06Z</time>
      </trkpt>
      <trkpt lat="45.884" lon="6.3224">
        <ele>592</ele>
        <time>2014-08-20T08:06:16Z</time>
      </trkpt>
      <trkpt lat="45.88416" lon="6.32192">
        <ele>592</ele>
        <time>2014-08-20T08:06:26Z</time>
      </trkpt>
      <trkpt lat="45.88435" lon="6.3214">
        <ele>590</ele>
        <time>2014-08-20T08:06:36Z</time>
      </trkpt>
      <trkpt lat="45.88451" lon="6.3209">
        <ele>592</ele>
        <time>2014-08-20T08:06:46Z</time>
      </trkpt>
      <trkpt lat="45.88464" lon="6.32043">
        <ele>590</ele>
        <time>2014-08-20T08:06:56Z</time>
      </trkpt>
      <trkpt lat="45.88475" lon="6.31999">
        <ele>590</ele>
        <time>2014-08-20T08:07:06Z</time>
      </trkpt>
      <trkpt lat="45.8849" lon="6.31943">
        <ele>592</ele>
        <time>2014-08-20T08:07:16Z</time>
      </trkpt>
      <trkpt lat="45.88497" lon="6.31896">
        <ele>590</ele>
        <time>2014-08-20T08:07:26Z</time>
      </trkpt>
      <trkpt lat="45.88516" lon="6.31841">
        <ele>590</ele>
        <time>2014-08-20T08:07:36Z</time>
      </trkpt>
      <trkpt lat="45.88549" lon="6.31766">
        <ele>588</ele>
        <time>2014-08-20T08:07:46Z</time>
      </trkpt>
      <trkpt lat="45.88564" lon="6.31733">
        <ele>588</ele>
        <time>2014-08-20T08:07:56Z</time>
      </trkpt>
      <trkpt lat="45.88535" lon="6.31797">
        <ele>588</ele>
        <time>2014-08-20T08:08:06Z</time>
      </trkpt>
      <trkpt lat="45.88503" lon="6.31872">
        <ele>590</ele>
        <time>2014-08-20T08:08:16Z</time>
      </trkpt>
      <trkpt lat="45.88466" lon="6.31943">
        <ele>590</ele>
        <time>2014-08-20T08:08:26Z</time>
      </trkpt>
      <trkpt lat="45.88428" lon="6.32007">
        <ele>590</ele>
        <time>2014-08-20T08:08:36Z</time>
      </trkpt>
      <trkpt lat="45.8839" lon="6.3207">
        <ele>592</ele>
        <time>2014-08-20T08:08:46Z</time>
      </trkpt>
      <trkpt lat="45.88349" lon="6.32133">
        <ele>592</ele>
        <time>2014-08-20T08:08:57Z</time>
      </trkpt>
      <trkpt lat="45.88312" lon="6.32193">
        <ele>592</ele>
        <time>2014-08-20T08:09:07Z</time>
      </trkpt>
      <trkpt lat="45.88292" lon="6.32237">
        <ele>592</ele>
        <time>2014-08-20T08:09:17Z</time>
      </trkpt>
      <trkpt lat="45.88246" lon="6.32292">
        <ele>596</ele>
        <time>2014-08-20T08:09:27Z</time>
      </trkpt>
      <trkpt lat="45.88209" lon="6.32349">
        <ele>594</ele>
        <time>2014-08-20T08:09:37Z</time>
      </trkpt>
      <trkpt lat="45.88189" lon="6.32302">
        <ele>594</ele>
        <time>2014-08-20T08:09:47Z</time>
      </trkpt>
      <trkpt lat="45.88195" lon="6.32224">
        <ele>596</ele>
        <time>2014-08-20T08:09:57Z</time>
      </trkpt>
      <trkpt lat="45.882" lon="6.32149">
        <ele>596</ele>
        <time>2014-08-20T08:10:07Z</time>
      </trkpt>
      <trkpt lat="45.88206" lon="6.3207">
        <ele>598</ele>
        <time>2014-08-20T08:10:17Z</time>
      </trkpt>
      <trkpt lat="45.88218" lon="6.31987">
        <ele>594</ele>
        <time>2014-08-20T08:10:27Z</time>
      </trkpt>
      <trkpt lat="45.88223" lon="6.3195">
        <ele>594</ele>
        <time>2014-08-20T08:10:37Z</time>
      </trkpt>
      <trkpt lat="45.88217" lon="6.31991">
        <ele>592</ele>
        <time>2014-08-20T08:10:47Z</time>
      </trkpt>
      <trkpt lat="45.8821" lon="6.32049">
        <ele>592</ele>
        <time>2014-08-20T08:10:57Z</time>
      </trkpt>
      <trkpt lat="45.88203" lon="6.32103">
        <ele>596</ele>
        <time>2014-08-20T08:11:07Z</time>
      </trkpt>
      <trkpt lat="45.88199" lon="6.32159">
        <ele>596</ele>
        <time>2014-08-20T08:11:17Z</time>
      </trkpt>
      <trkpt lat="45.88196" lon="6.32213">
        <ele>596</ele>
        <time>2014-08-20T08:11:27Z</time>
      </trkpt>
      <trkpt lat="45.8819" lon="6.32289">
        <ele>596</ele>
        <time>2014-08-20T08:11:37Z</time>
      </trkpt>
      <trkpt lat="45.88185" lon="6.32359">
        <ele>594</ele>
        <time>2014-08-20T08:11:47Z</time>
      </trkpt>
      <trkpt lat="45.88179" lon="6.32416">
        <ele>594</ele>
        <time>2014-08-20T08:11:57Z</time>
      </trkpt>
      <trkpt lat="45.88158" lon="6.32443">
        <ele>594</ele>
        <time>2014-08-20T08:12:07Z</time>
      </trkpt>
      <trkpt lat="45.88158" lon="6.32443">
        <ele>596</ele>
        <time>2014-08-20T08:12:17Z</time>
      </trkpt>
      <trkpt lat="45.88158" lon="6.32442">
        <ele>596</ele>
        <time>2014-08-20T08:12:27Z</time>
      </trkpt>
      <trkpt lat="45.88157" lon="6.32444">
        <ele>596</ele>
        <time>2014-08-20T08:12:37Z</time>
      </trkpt>
      <trkpt lat="45.88157" lon="6.32443">
        <ele>594</ele>
        <time>2014-08-20T08:12:47Z</time>
      </trkpt>
      <trkpt lat="45.88157" lon="6.32444">
        <ele>594</ele>
        <time>2014-08-20T08:12:57Z</time>
      </trkpt>
      <trkpt lat="45.88155" lon="6.32446">
        <ele>594</ele>
        <time>2014-08-20T08:13:07Z</time>
      </trkpt>
      <trkpt lat="45.88153" lon="6.32449">
        <ele>594</ele>
        <time>2014-08-20T08:13:17Z</time>
      </trkpt>
      <trkpt lat="45.88152" lon="6.3245">
        <ele>594</ele>
        <time>2014-08-20T08:13:27Z</time>
      </trkpt>
      <trkpt lat="45.88153" lon="6.32449">
        <ele>594</ele>
        <time>2014-08-20T08:13:37Z</time>
      </trkpt>
      <trkpt lat="45.88153" lon="6.32449">
        <ele>594</ele>
        <time>2014-08-20T08:13:47Z</time>
      </trkpt>
      <trkpt lat="45.88152" lon="6.32451">
        <ele>594</ele>
        <time>2014-08-20T08:13:57Z</time>
      </trkpt>
      <trkpt lat="45.88151" lon="6.32452">
        <ele>594</ele>
        <time>2014-08-20T08:14:07Z</time>
      </trkpt>
      <trkpt lat="45.8815" lon="6.32452">
        <ele>594</ele>
        <time>2014-08-20T08:14:17Z</time>
      </trkpt>
      <trkpt lat="45.8815" lon="6.32453">
        <ele>594</ele>
        <time>2014-08-20T08:14:27Z</time>
      </trkpt>
      <trkpt lat="45.88149" lon="6.32454">
        <ele>594</ele>
        <time>2014-08-20T08:14:37Z</time>
      </trkpt>
      <trkpt lat="45.88139" lon="6.32468">
        <ele>594</ele>
        <time>2014-08-20T08:14:47Z</time>
      </trkpt>
      <trkpt lat="45.88111" lon="6.32496">
        <ele>594</ele>
        <time>2014-08-20T08:14:57Z</time>
      </trkpt>
      <trkpt lat="45.88077" lon="6.32499">
        <ele>596</ele>
        <time>2014-08-20T08:15:07Z</time>
      </trkpt>
      <trkpt lat="45.88031" lon="6.32495">
        <ele>596</ele>
        <time>2014-08-20T08:15:17Z</time>
      </trkpt>
      <trkpt lat="45.87989" lon="6.3249">
        <ele>596</ele>
        <time>2014-08-20T08:15:27Z</time>
      </trkpt>
      <trkpt lat="45.87946" lon="6.32485">
        <ele>600</ele>
        <time>2014-08-20T08:15:37Z</time>
      </trkpt>
      <trkpt lat="45.87902" lon="6.32477">
        <ele>600</ele>
        <time>2014-08-20T08:15:47Z</time>
      </trkpt>
      <trkpt lat="45.87859" lon="6.32461">
        <ele>600</ele>
        <time>2014-08-20T08:15:57Z</time>
      </trkpt>
      <trkpt lat="45.87814" lon="6.32447">
        <ele>604</ele>
        <time>2014-08-20T08:16:07Z</time>
      </trkpt>
      <trkpt lat="45.87767" lon="6.32434">
        <ele>604</ele>
        <time>2014-08-20T08:16:17Z</time>
      </trkpt>
      <trkpt lat="45.87724" lon="6.32423">
        <ele>604</ele>
        <time>2014-08-20T08:16:27Z</time>
      </trkpt>
      <trkpt lat="45.87683" lon="6.32412">
        <ele>608</ele>
        <time>2014-08-20T08:16:37Z</time>
      </trkpt>
      <trkpt lat="45.87641" lon="6.32401">
        <ele>608</ele>
        <time>2014-08-20T08:16:47Z</time>
      </trkpt>
      <trkpt lat="45.87593" lon="6.32386">
        <ele>608</ele>
        <time>2014-08-20T08:16:57Z</time>
      </trkpt>
      <trkpt lat="45.87551" lon="6.32371">
        <ele>608</ele>
        <time>2014-08-20T08:17:07Z</time>
      </trkpt>
      <trkpt lat="45.87505" lon="6.32355">
        <ele>610</ele>
        <time>2014-08-20T08:17:17Z</time>
      </trkpt>
      <trkpt lat="45.87453" lon="6.32336">
        <ele>610</ele>
        <time>2014-08-20T08:17:27Z</time>
      </trkpt>
      <trkpt lat="45.87402" lon="6.32318">
        <ele>612</ele>
        <time>2014-08-20T08:17:38Z</time>
      </trkpt>
      <trkpt lat="45.87353" lon="6.32301">
        <ele>612</ele>
        <time>2014-08-20T08:17:48Z</time>
      </trkpt>
      <trkpt lat="45.87303" lon="6.32301">
        <ele>612</ele>
        <time>2014-08-20T08:17:58Z</time>
      </trkpt>
      <trkpt lat="45.87251" lon="6.3231">
        <ele>614</ele>
        <time>2014-08-20T08:18:08Z</time>
      </trkpt>
      <trkpt lat="45.872" lon="6.32318">
        <ele>614</ele>
        <time>2014-08-20T08:18:18Z</time>
      </trkpt>
      <trkpt lat="45.87149" lon="6.32329">
        <ele>616</ele>
        <time>2014-08-20T08:18:28Z</time>
      </trkpt>
      <trkpt lat="45.87102" lon="6.32344">
        <ele>616</ele>
        <time>2014-08-20T08:18:38Z</time>
      </trkpt>
      <trkpt lat="45.87056" lon="6.32364">
        <ele>618</ele>
        <time>2014-08-20T08:18:48Z</time>
      </trkpt>
      <trkpt lat="45.87011" lon="6.32385">
        <ele>620</ele>
        <time>2014-08-20T08:18:58Z</time>
      </trkpt>
      <trkpt lat="45.86967" lon="6.32405">
        <ele>620</ele>
        <time>2014-08-20T08:19:08Z</time>
      </trkpt>
      <trkpt lat="45.86938" lon="6.32449">
        <ele>622</ele>
        <time>2014-08-20T08:19:18Z</time>
      </trkpt>
      <trkpt lat="45.8691" lon="6.3247">
        <ele>622</ele>
        <time>2014-08-20T08:19:28Z</time>
      </trkpt>
      <trkpt lat="45.86885" lon="6.32482">
        <ele>624</ele>
        <time>2014-08-20T08:19:38Z</time>
      </trkpt>
      <trkpt lat="45.8686" lon="6.32491">
        <ele>624</ele>
        <time>2014-08-20T08:19:48Z</time>
      </trkpt>
      <trkpt lat="45.86836" lon="6.325">
        <ele>628</ele>
        <time>2014-08-20T08:19:58Z</time>
      </trkpt>
      <trkpt lat="45.86811" lon="6.3251">
        <ele>628</ele>
        <time>2014-08-20T08:20:08Z</time>
      </trkpt>
      <trkpt lat="45.86789" lon="6.32517">
        <ele>632</ele>
        <time>2014-08-20T08:20:18Z</time>
      </trkpt>
      <trkpt lat="45.86768" lon="6.32525">
        <ele>636</ele>
        <time>2014-08-20T08:20:28Z</time>
      </trkpt>
      <trkpt lat="45.86742" lon="6.32536">
        <ele>636</ele>
        <time>2014-08-20T08:20:38Z</time>
      </trkpt>
      <trkpt lat="45.86715" lon="6.32543">
        <ele>638</ele>
        <time>2014-08-20T08:20:48Z</time>
      </trkpt>
      <trkpt lat="45.86688" lon="6.32541">
        <ele>642</ele>
        <time>2014-08-20T08:20:58Z</time>
      </trkpt>
      <trkpt lat="45.86662" lon="6.32541">
        <ele>642</ele>
        <time>2014-08-20T08:21:08Z</time>
      </trkpt>
      <trkpt lat="45.86637" lon="6.3255">
        <ele>646</ele>
        <time>2014-08-20T08:21:18Z</time>
      </trkpt>
      <trkpt lat="45.86615" lon="6.32567">
        <ele>650</ele>
        <time>2014-08-20T08:21:28Z</time>
      </trkpt>
      <trkpt lat="45.86594" lon="6.32592">
        <ele>650</ele>
        <time>2014-08-20T08:21:38Z</time>
      </trkpt>
      <trkpt lat="45.86574" lon="6.32616">
        <ele>654</ele>
        <time>2014-08-20T08:21:48Z</time>
      </trkpt>
      <trkpt lat="45.86556" lon="6.32641">
        <ele>654</ele>
        <time>2014-08-20T08:21:58Z</time>
      </trkpt>
      <trkpt lat="45.86539" lon="6.32667">
        <ele>658</ele>
        <time>2014-08-20T08:22:08Z</time>
      </trkpt>
      <trkpt lat="45.86523" lon="6.32691">
        <ele>658</ele>
        <time>2014-08-20T08:22:18Z</time>
      </trkpt>
      <trkpt lat="45.86505" lon="6.32713">
        <ele>662</ele>
        <time>2014-08-20T08:22:28Z</time>
      </trkpt>
      <trkpt lat="45.86485" lon="6.32729">
        <ele>662</ele>
        <time>2014-08-20T08:22:38Z</time>
      </trkpt>
      <trkpt lat="45.86465" lon="6.32743">
        <ele>664</ele>
        <time>2014-08-20T08:22:48Z</time>
      </trkpt>
      <trkpt lat="45.86444" lon="6.32756">
        <ele>668</ele>
        <time>2014-08-20T08:22:58Z</time>
      </trkpt>
      <trkpt lat="45.86423" lon="6.32769">
        <ele>668</ele>
        <time>2014-08-20T08:23:08Z</time>
      </trkpt>
      <trkpt lat="45.86403" lon="6.32783">
        <ele>670</ele>
        <time>2014-08-20T08:23:18Z</time>
      </trkpt>
      <trkpt lat="45.86384" lon="6.32796">
        <ele>674</ele>
        <time>2014-08-20T08:23:28Z</time>
      </trkpt>
      <trkpt lat="45.86368" lon="6.3282">
        <ele>674</ele>
        <time>2014-08-20T08:23:38Z</time>
      </trkpt>
      <trkpt lat="45.86355" lon="6.32845">
        <ele>678</ele>
        <time>2014-08-20T08:23:48Z</time>
      </trkpt>
      <trkpt lat="45.86342" lon="6.32872">
        <ele>678</ele>
        <time>2014-08-20T08:23:58Z</time>
      </trkpt>
      <trkpt lat="45.86322" lon="6.32889">
        <ele>682</ele>
        <time>2014-08-20T08:24:08Z</time>
      </trkpt>
      <trkpt lat="45.86304" lon="6.32899">
        <ele>682</ele>
        <time>2014-08-20T08:24:18Z</time>
      </trkpt>
      <trkpt lat="45.86284" lon="6.3291">
        <ele>686</ele>
        <time>2014-08-20T08:24:28Z</time>
      </trkpt>
      <trkpt lat="45.86265" lon="6.32932">
        <ele>686</ele>
        <time>2014-08-20T08:24:38Z</time>
      </trkpt>
      <trkpt lat="45.86248" lon="6.32953">
        <ele>690</ele>
        <time>2014-08-20T08:24:48Z</time>
      </trkpt>
      <trkpt lat="45.86232" lon="6.32981">
        <ele>690</ele>
        <time>2014-08-20T08:24:58Z</time>
      </trkpt>
      <trkpt lat="45.86217" lon="6.33008">
        <ele>694</ele>
        <time>2014-08-20T08:25:08Z</time>
      </trkpt>
      <trkpt lat="45.86203" lon="6.33033">
        <ele>694</ele>
        <time>2014-08-20T08:25:18Z</time>
      </trkpt>
      <trkpt lat="45.86187" lon="6.33057">
        <ele>698</ele>
        <time>2014-08-20T08:25:28Z</time>
      </trkpt>
      <trkpt lat="45.86169" lon="6.33081">
        <ele>698</ele>
        <time>2014-08-20T08:25:38Z</time>
      </trkpt>
      <trkpt lat="45.8615" lon="6.33103">
        <ele>702</ele>
        <time>2014-08-20T08:25:48Z</time>
      </trkpt>
      <trkpt lat="45.86132" lon="6.33124">
        <ele>706</ele>
        <time>2014-08-20T08:25:58Z</time>
      </trkpt>
      <trkpt lat="45.86115" lon="6.33145">
        <ele>706</ele>
        <time>2014-08-20T08:26:08Z</time>
      </trkpt>
      <trkpt lat="45.86094" lon="6.33169">
        <ele>706</ele>
        <time>2014-08-20T08:26:19Z</time>
      </trkpt>
      <trkpt lat="45.86078" lon="6.33192">
        <ele>710</ele>
        <time>2014-08-20T08:26:29Z</time>
      </trkpt>
      <trkpt lat="45.86064" lon="6.33217">
        <ele>710</ele>
        <time>2014-08-20T08:26:39Z</time>
      </trkpt>
      <trkpt lat="45.86056" lon="6.33248">
        <ele>714</ele>
        <time>2014-08-20T08:26:49Z</time>
      </trkpt>
      <trkpt lat="45.86051" lon="6.33281">
        <ele>714</ele>
        <time>2014-08-20T08:26:59Z</time>
      </trkpt>
      <trkpt lat="45.86045" lon="6.33314">
        <ele>716</ele>
        <time>2014-08-20T08:27:09Z</time>
      </trkpt>
      <trkpt lat="45.86038" lon="6.33349">
        <ele>716</ele>
        <time>2014-08-20T08:27:19Z</time>
      </trkpt>
      <trkpt lat="45.8603" lon="6.33381">
        <ele>720</ele>
        <time>2014-08-20T08:27:29Z</time>
      </trkpt>
      <trkpt lat="45.86021" lon="6.33415">
        <ele>720</ele>
        <time>2014-08-20T08:27:39Z</time>
      </trkpt>
      <trkpt lat="45.86016" lon="6.33449">
        <ele>724</ele>
        <time>2014-08-20T08:27:49Z</time>
      </trkpt>
      <trkpt lat="45.86011" lon="6.33487">
        <ele>724</ele>
        <time>2014-08-20T08:28:00Z</time>
      </trkpt>
      <trkpt lat="45.86009" lon="6.33525">
        <ele>724</ele>
        <time>2014-08-20T08:28:10Z</time>
      </trkpt>
      <trkpt lat="45.8601" lon="6.33559">
        <ele>728</ele>
        <time>2014-08-20T08:28:20Z</time>
      </trkpt>
      <trkpt lat="45.85999" lon="6.33594">
        <ele>728</ele>
        <time>2014-08-20T08:28:30Z</time>
      </trkpt>
      <trkpt lat="45.85982" lon="6.33621">
        <ele>728</ele>
        <time>2014-08-20T08:28:40Z</time>
      </trkpt>
      <trkpt lat="45.8597" lon="6.33658">
        <ele>732</ele>
        <time>2014-08-20T08:28:51Z</time>
      </trkpt>
      <trkpt lat="45.85963" lon="6.33692">
        <ele>736</ele>
        <time>2014-08-20T08:29:01Z</time>
      </trkpt>
      <trkpt lat="45.85956" lon="6.33718">
        <ele>736</ele>
        <time>2014-08-20T08:29:11Z</time>
      </trkpt>
      <trkpt lat="45.85949" lon="6.33746">
        <ele>736</ele>
        <time>2014-08-20T08:29:21Z</time>
      </trkpt>
      <trkpt lat="45.85958" lon="6.33787">
        <ele>740</ele>
        <time>2014-08-20T08:29:31Z</time>
      </trkpt>
      <trkpt lat="45.85972" lon="6.33808">
        <ele>744</ele>
        <time>2014-08-20T08:29:41Z</time>
      </trkpt>
      <trkpt lat="45.85979" lon="6.33839">
        <ele>744</ele>
        <time>2014-08-20T08:29:51Z</time>
      </trkpt>
      <trkpt lat="45.85976" lon="6.33876">
        <ele>748</ele>
        <time>2014-08-20T08:30:01Z</time>
      </trkpt>
      <trkpt lat="45.85966" lon="6.3391">
        <ele>748</ele>
        <time>2014-08-20T08:30:11Z</time>
      </trkpt>
      <trkpt lat="45.85967" lon="6.33949">
        <ele>752</ele>
        <time>2014-08-20T08:30:21Z</time>
      </trkpt>
      <trkpt lat="45.85973" lon="6.3398">
        <ele>752</ele>
        <time>2014-08-20T08:30:31Z</time>
      </trkpt>
      <trkpt lat="45.85973" lon="6.34019">
        <ele>756</ele>
        <time>2014-08-20T08:30:41Z</time>
      </trkpt>
      <trkpt lat="45.85976" lon="6.34052">
        <ele>756</ele>
        <time>2014-08-20T08:30:51Z</time>
      </trkpt>
      <trkpt lat="45.85991" lon="6.34088">
        <ele>756</ele>
        <time>2014-08-20T08:31:01Z</time>
      </trkpt>
      <trkpt lat="45.86014" lon="6.3412">
        <ele>760</ele>
        <time>2014-08-20T08:31:12Z</time>
      </trkpt>
      <trkpt lat="45.86033" lon="6.34146">
        <ele>760</ele>
        <time>2014-08-20T08:31:22Z</time>
      </trkpt>
      <trkpt lat="45.86043" lon="6.34176">
        <ele>764</ele>
        <time>2014-08-20T08:31:32Z</time>
      </trkpt>
      <trkpt lat="45.86035" lon="6.34208">
        <ele>764</ele>
        <time>2014-08-20T08:31:42Z</time>
      </trkpt>
      <trkpt lat="45.86023" lon="6.3424">
        <ele>768</ele>
        <time>2014-08-20T08:31:52Z</time>
      </trkpt>
      <trkpt lat="45.86011" lon="6.34272">
        <ele>768</ele>
        <time>2014-08-20T08:32:02Z</time>
      </trkpt>
      <trkpt lat="45.86005" lon="6.34307">
        <ele>772</ele>
        <time>2014-08-20T08:32:12Z</time>
      </trkpt>
      <trkpt lat="45.86008" lon="6.34342">
        <ele>772</ele>
        <time>2014-08-20T08:32:22Z</time>
      </trkpt>
      <trkpt lat="45.86026" lon="6.34367">
        <ele>776</ele>
        <time>2014-08-20T08:32:32Z</time>
      </trkpt>
      <trkpt lat="45.86037" lon="6.34397">
        <ele>776</ele>
        <time>2014-08-20T08:32:42Z</time>
      </trkpt>
      <trkpt lat="45.86035" lon="6.34432">
        <ele>776</ele>
        <time>2014-08-20T08:32:52Z</time>
      </trkpt>
      <trkpt lat="45.86026" lon="6.34464">
        <ele>780</ele>
        <time>2014-08-20T08:33:02Z</time>
      </trkpt>
      <trkpt lat="45.86026" lon="6.34499">
        <ele>780</ele>
        <time>2014-08-20T08:33:12Z</time>
      </trkpt>
      <trkpt lat="45.86032" lon="6.34532">
        <ele>784</ele>
        <time>2014-08-20T08:33:22Z</time>
      </trkpt>
      <trkpt lat="45.86044" lon="6.34562">
        <ele>788</ele>
        <time>2014-08-20T08:33:32Z</time>
      </trkpt>
      <trkpt lat="45.8606" lon="6.3459">
        <ele>788</ele>
        <time>2014-08-20T08:33:43Z</time>
      </trkpt>
      <trkpt lat="45.8608" lon="6.3461">
        <ele>792</ele>
        <time>2014-08-20T08:33:53Z</time>
      </trkpt>
      <trkpt lat="45.86097" lon="6.34632">
        <ele>792</ele>
        <time>2014-08-20T08:34:03Z</time>
      </trkpt>
      <trkpt lat="45.86107" lon="6.3466">
        <ele>792</ele>
        <time>2014-08-20T08:34:13Z</time>
      </trkpt>
      <trkpt lat="45.86115" lon="6.34687">
        <ele>796</ele>
        <time>2014-08-20T08:34:23Z</time>
      </trkpt>
      <trkpt lat="45.86115" lon="6.34719">
        <ele>796</ele>
        <time>2014-08-20T08:34:33Z</time>
      </trkpt>
      <trkpt lat="45.86103" lon="6.3474">
        <ele>800</ele>
        <time>2014-08-20T08:34:43Z</time>
      </trkpt>
      <trkpt lat="45.86089" lon="6.34757">
        <ele>800</ele>
        <time>2014-08-20T08:34:53Z</time>
      </trkpt>
      <trkpt lat="45.86074" lon="6.34776">
        <ele>804</ele>
        <time>2014-08-20T08:35:03Z</time>
      </trkpt>
      <trkpt lat="45.86059" lon="6.34786">
        <ele>804</ele>
        <time>2014-08-20T08:35:13Z</time>
      </trkpt>
      <trkpt lat="45.86034" lon="6.34793">
        <ele>808</ele>
        <time>2014-08-20T08:35:22Z</time>
      </trkpt>
      <trkpt lat="45.86007" lon="6.34813">
        <ele>808</ele>
        <time>2014-08-20T08:35:33Z</time>
      </trkpt>
      <trkpt lat="45.85997" lon="6.34842">
        <ele>808</ele>
        <time>2014-08-20T08:35:42Z</time>
      </trkpt>
      <trkpt lat="45.85991" lon="6.34879">
        <ele>812</ele>
        <time>2014-08-20T08:35:54Z</time>
      </trkpt>
      <trkpt lat="45.85991" lon="6.34915">
        <ele>812</ele>
        <time>2014-08-20T08:36:03Z</time>
      </trkpt>
      <trkpt lat="45.85992" lon="6.34954">
        <ele>816</ele>
        <time>2014-08-20T08:36:14Z</time>
      </trkpt>
      <trkpt lat="45.85993" lon="6.34988">
        <ele>820</ele>
        <time>2014-08-20T08:36:23Z</time>
      </trkpt>
      <trkpt lat="45.85994" lon="6.3503">
        <ele>820</ele>
        <time>2014-08-20T08:36:34Z</time>
      </trkpt>
      <trkpt lat="45.85993" lon="6.3506">
        <ele>824</ele>
        <time>2014-08-20T08:36:43Z</time>
      </trkpt>
      <trkpt lat="45.85985" lon="6.35086">
        <ele>828</ele>
        <time>2014-08-20T08:36:54Z</time>
      </trkpt>
      <trkpt lat="45.85979" lon="6.35112">
        <ele>828</ele>
        <time>2014-08-20T08:37:03Z</time>
      </trkpt>
      <trkpt lat="45.85978" lon="6.35144">
        <ele>832</ele>
        <time>2014-08-20T08:37:14Z</time>
      </trkpt>
      <trkpt lat="45.8598" lon="6.35169">
        <ele>832</ele>
        <time>2014-08-20T08:37:23Z</time>
      </trkpt>
      <trkpt lat="45.85984" lon="6.35201">
        <ele>836</ele>
        <time>2014-08-20T08:37:34Z</time>
      </trkpt>
      <trkpt lat="45.85987" lon="6.35224">
        <ele>836</ele>
        <time>2014-08-20T08:37:43Z</time>
      </trkpt>
      <trkpt lat="45.85994" lon="6.35253">
        <ele>840</ele>
        <time>2014-08-20T08:37:54Z</time>
      </trkpt>
      <trkpt lat="45.86002" lon="6.35277">
        <ele>840</ele>
        <time>2014-08-20T08:38:03Z</time>
      </trkpt>
      <trkpt lat="45.86014" lon="6.35311">
        <ele>840</ele>
        <time>2014-08-20T08:38:15Z</time>
      </trkpt>
      <trkpt lat="45.86024" lon="6.35341">
        <ele>844</ele>
        <time>2014-08-20T08:38:24Z</time>
      </trkpt>
      <trkpt lat="45.86035" lon="6.35375">
        <ele>844</ele>
        <time>2014-08-20T08:38:35Z</time>
      </trkpt>
      <trkpt lat="45.86043" lon="6.35402">
        <ele>848</ele>
        <time>2014-08-20T08:38:44Z</time>
      </trkpt>
      <trkpt lat="45.86053" lon="6.35436">
        <ele>848</ele>
        <time>2014-08-20T08:38:55Z</time>
      </trkpt>
      <trkpt lat="45.86061" lon="6.35466">
        <ele>852</ele>
        <time>2014-08-20T08:39:05Z</time>
      </trkpt>
      <trkpt lat="45.86068" lon="6.35498">
        <ele>852</ele>
        <time>2014-08-20T08:39:14Z</time>
      </trkpt>
      <trkpt lat="45.86074" lon="6.35531">
        <ele>852</ele>
        <time>2014-08-20T08:39:24Z</time>
      </trkpt>
      <trkpt lat="45.8608" lon="6.35565">
        <ele>856</ele>
        <time>2014-08-20T08:39:34Z</time>
      </trkpt>
      <trkpt lat="45.86091" lon="6.35598">
        <ele>856</ele>
        <time>2014-08-20T08:39:43Z</time>
      </trkpt>
      <trkpt lat="45.86104" lon="6.35619">
        <ele>860</ele>
        <time>2014-08-20T08:39:55Z</time>
      </trkpt>
      <trkpt lat="45.86124" lon="6.35647">
        <ele>860</ele>
        <time>2014-08-20T08:40:04Z</time>
      </trkpt>
      <trkpt lat="45.86142" lon="6.35671">
        <ele>860</ele>
        <time>2014-08-20T08:40:16Z</time>
      </trkpt>
      <trkpt lat="45.86161" lon="6.35688">
        <ele>860</ele>
        <time>2014-08-20T08:40:25Z</time>
      </trkpt>
      <trkpt lat="45.86199" lon="6.35704">
        <ele>860</ele>
        <time>2014-08-20T08:40:34Z</time>
      </trkpt>
      <trkpt lat="45.86237" lon="6.35751">
        <ele>864</ele>
        <time>2014-08-20T08:40:46Z</time>
      </trkpt>
      <trkpt lat="45.86265" lon="6.35807">
        <ele>864</ele>
        <time>2014-08-20T08:40:55Z</time>
      </trkpt>
      <trkpt lat="45.86285" lon="6.35863">
        <ele>864</ele>
        <time>2014-08-20T08:41:06Z</time>
      </trkpt>
      <trkpt lat="45.86245" lon="6.35902">
        <ele>864</ele>
        <time>2014-08-20T08:41:16Z</time>
      </trkpt>
      <trkpt lat="45.86189" lon="6.35892">
        <ele>868</ele>
        <time>2014-08-20T08:41:25Z</time>
      </trkpt>
      <trkpt lat="45.8615" lon="6.35942">
        <ele>868</ele>
        <time>2014-08-20T08:41:35Z</time>
      </trkpt>
      <trkpt lat="45.86132" lon="6.35984">
        <ele>872</ele>
        <time>2014-08-20T08:41:46Z</time>
      </trkpt>
      <trkpt lat="45.86113" lon="6.36054">
        <ele>872</ele>
        <time>2014-08-20T08:41:55Z</time>
      </trkpt>
      <trkpt lat="45.86095" lon="6.36149">
        <ele>872</ele>
        <time>2014-08-20T08:42:07Z</time>
      </trkpt>
      <trkpt lat="45.8607" lon="6.36248">
        <ele>872</ele>
        <time>2014-08-20T08:42:16Z</time>
      </trkpt>
      <trkpt lat="45.86063" lon="6.36339">
        <ele>872</ele>
        <time>2014-08-20T08:42:25Z</time>
      </trkpt>
      <trkpt lat="45.86058" lon="6.36438">
        <ele>876</ele>
        <time>2014-08-20T08:42:37Z</time>
      </trkpt>
      <trkpt lat="45.8607" lon="6.3649">
        <ele>876</ele>
        <time>2014-08-20T08:42:46Z</time>
      </trkpt>
      <trkpt lat="45.86068" lon="6.3654">
        <ele>880</ele>
        <time>2014-08-20T08:42:55Z</time>
      </trkpt>
      <trkpt lat="45.86062" lon="6.36607">
        <ele>880</ele>
        <time>2014-08-20T08:43:07Z</time>
      </trkpt>
      <trkpt lat="45.86072" lon="6.36655">
        <ele>884</ele>
        <time>2014-08-20T08:43:16Z</time>
      </trkpt>
      <trkpt lat="45.86084" lon="6.36695">
        <ele>884</ele>
        <time>2014-08-20T08:43:25Z</time>
      </trkpt>
      <trkpt lat="45.86109" lon="6.36738">
        <ele>884</ele>
        <time>2014-08-20T08:43:37Z</time>
      </trkpt>
      <trkpt lat="45.86122" lon="6.36776">
        <ele>888</ele>
        <time>2014-08-20T08:43:46Z</time>
      </trkpt>
      <trkpt lat="45.86134" lon="6.36812">
        <ele>888</ele>
        <time>2014-08-20T08:43:55Z</time>
      </trkpt>
      <trkpt lat="45.86148" lon="6.36859">
        <ele>892</ele>
        <time>2014-08-20T08:44:08Z</time>
      </trkpt>
      <trkpt lat="45.86143" lon="6.36892">
        <ele>892</ele>
        <time>2014-08-20T08:44:17Z</time>
      </trkpt>
      <trkpt lat="45.86126" lon="6.36919">
        <ele>896</ele>
        <time>2014-08-20T08:44:28Z</time>
      </trkpt>
      <trkpt lat="45.86112" lon="6.36934">
        <ele>896</ele>
        <time>2014-08-20T08:44:36Z</time>
      </trkpt>
      <trkpt lat="45.86086" lon="6.36984">
        <ele>896</ele>
        <time>2014-08-20T08:44:47Z</time>
      </trkpt>
      <trkpt lat="45.86064" lon="6.37019">
        <ele>900</ele>
        <time>2014-08-20T08:44:58Z</time>
      </trkpt>
      <trkpt lat="45.86055" lon="6.37029">
        <ele>900</ele>
        <time>2014-08-20T08:45:06Z</time>
      </trkpt>
      <trkpt lat="45.86035" lon="6.37065">
        <ele>904</ele>
        <time>2014-08-20T08:45:17Z</time>
      </trkpt>
      <trkpt lat="45.86029" lon="6.37094">
        <ele>908</ele>
        <time>2014-08-20T08:45:28Z</time>
      </trkpt>
      <trkpt lat="45.86018" lon="6.37128">
        <ele>908</ele>
        <time>2014-08-20T08:45:36Z</time>
      </trkpt>
      <trkpt lat="45.85998" lon="6.37174">
        <ele>908</ele>
        <time>2014-08-20T08:45:48Z</time>
      </trkpt>
      <trkpt lat="45.85986" lon="6.37212">
        <ele>908</ele>
        <time>2014-08-20T08:45:57Z</time>
      </trkpt>
      <trkpt lat="45.85975" lon="6.37252">
        <ele>908</ele>
        <time>2014-08-20T08:46:07Z</time>
      </trkpt>
      <trkpt lat="45.85959" lon="6.37306">
        <ele>912</ele>
        <time>2014-08-20T08:46:18Z</time>
      </trkpt>
      <trkpt lat="45.85952" lon="6.37361">
        <ele>912</ele>
        <time>2014-08-20T08:46:29Z</time>
      </trkpt>
      <trkpt lat="45.85955" lon="6.37409">
        <ele>912</ele>
        <time>2014-08-20T08:46:38Z</time>
      </trkpt>
      <trkpt lat="45.85972" lon="6.37451">
        <ele>912</ele>
        <time>2014-08-20T08:46:47Z</time>
      </trkpt>
      <trkpt lat="45.85982" lon="6.37512">
        <ele>916</ele>
        <time>2014-08-20T08:46:58Z</time>
      </trkpt>
      <trkpt lat="45.85988" lon="6.37555">
        <ele>920</ele>
        <time>2014-08-20T08:47:08Z</time>
      </trkpt>
      <trkpt lat="45.86006" lon="6.37531">
        <ele>924</ele>
        <time>2014-08-20T08:47:17Z</time>
      </trkpt>
      <trkpt lat="45.86015" lon="6.37481">
        <ele>924</ele>
        <time>2014-08-20T08:47:29Z</time>
      </trkpt>
      <trkpt lat="45.8602" lon="6.37459">
        <ele>930</ele>
        <time>2014-08-20T08:47:37Z</time>
      </trkpt>
      <trkpt lat="45.86035" lon="6.37414">
        <ele>930</ele>
        <time>2014-08-20T08:47:49Z</time>
      </trkpt>
      <trkpt lat="45.86048" lon="6.37384">
        <ele>934</ele>
        <time>2014-08-20T08:47:59Z</time>
      </trkpt>
      <trkpt lat="45.86061" lon="6.37353">
        <ele>934</ele>
        <time>2014-08-20T08:48:10Z</time>
      </trkpt>
      <trkpt lat="45.86073" lon="6.37325">
        <ele>938</ele>
        <time>2014-08-20T08:48:18Z</time>
      </trkpt>
      <trkpt lat="45.86079" lon="6.3731">
        <ele>938</ele>
        <time>2014-08-20T08:48:30Z</time>
      </trkpt>
      <trkpt lat="45.861" lon="6.37279">
        <ele>942</ele>
        <time>2014-08-20T08:48:39Z</time>
      </trkpt>
      <trkpt lat="45.86113" lon="6.37263">
        <ele>942</ele>
        <time>2014-08-20T08:48:48Z</time>
      </trkpt>
      <trkpt lat="45.86132" lon="6.37242">
        <ele>946</ele>
        <time>2014-08-20T08:49:00Z</time>
      </trkpt>
      <trkpt lat="45.86146" lon="6.37227">
        <ele>946</ele>
        <time>2014-08-20T08:49:09Z</time>
      </trkpt>
      <trkpt lat="45.86159" lon="6.37214">
        <ele>950</ele>
        <time>2014-08-20T08:49:18Z</time>
      </trkpt>
      <trkpt lat="45.86176" lon="6.37198">
        <ele>954</ele>
        <time>2014-08-20T08:49:30Z</time>
      </trkpt>
      <trkpt lat="45.86189" lon="6.37188">
        <ele>954</ele>
        <time>2014-08-20T08:49:39Z</time>
      </trkpt>
      <trkpt lat="45.86205" lon="6.37178">
        <ele>954</ele>
        <time>2014-08-20T08:49:48Z</time>
      </trkpt>
      <trkpt lat="45.86224" lon="6.37159">
        <ele>958</ele>
        <time>2014-08-20T08:50:00Z</time>
      </trkpt>
      <trkpt lat="45.86238" lon="6.37143">
        <ele>962</ele>
        <time>2014-08-20T08:50:10Z</time>
      </trkpt>
      <trkpt lat="45.86252" lon="6.37125">
        <ele>962</ele>
        <time>2014-08-20T08:50:19Z</time>
      </trkpt>
      <trkpt lat="45.86272" lon="6.37126">
        <ele>966</ele>
        <time>2014-08-20T08:50:31Z</time>
      </trkpt>
      <trkpt lat="45.86266" lon="6.3715">
        <ele>966</ele>
        <time>2014-08-20T08:50:40Z</time>
      </trkpt>
      <trkpt lat="45.86256" lon="6.37174">
        <ele>970</ele>
        <time>2014-08-20T08:50:49Z</time>
      </trkpt>
      <trkpt lat="45.86254" lon="6.3721">
        <ele>970</ele>
        <time>2014-08-20T08:51:01Z</time>
      </trkpt>
      <trkpt lat="45.8625" lon="6.37235">
        <ele>974</ele>
        <time>2014-08-20T08:51:10Z</time>
      </trkpt>
      <trkpt lat="45.8624" lon="6.37262">
        <ele>974</ele>
        <time>2014-08-20T08:51:19Z</time>
      </trkpt>
      <trkpt lat="45.86219" lon="6.37293">
        <ele>978</ele>
        <time>2014-08-20T08:51:31Z</time>
      </trkpt>
      <trkpt lat="45.86209" lon="6.3732">
        <ele>982</ele>
        <time>2014-08-20T08:51:40Z</time>
      </trkpt>
      <trkpt lat="45.86208" lon="6.37347">
        <ele>982</ele>
        <time>2014-08-20T08:51:49Z</time>
      </trkpt>
      <trkpt lat="45.8621" lon="6.37382">
        <ele>986</ele>
        <time>2014-08-20T08:52:01Z</time>
      </trkpt>
      <trkpt lat="45.86207" lon="6.37406">
        <ele>986</ele>
        <time>2014-08-20T08:52:11Z</time>
      </trkpt>
      <trkpt lat="45.86205" lon="6.37434">
        <ele>990</ele>
        <time>2014-08-20T08:52:20Z</time>
      </trkpt>
      <trkpt lat="45.86203" lon="6.37469">
        <ele>994</ele>
        <time>2014-08-20T08:52:32Z</time>
      </trkpt>
      <trkpt lat="45.86205" lon="6.37496">
        <ele>994</ele>
        <time>2014-08-20T08:52:41Z</time>
      </trkpt>
      <trkpt lat="45.86211" lon="6.37521">
        <ele>994</ele>
        <time>2014-08-20T08:52:50Z</time>
      </trkpt>
      <trkpt lat="45.86219" lon="6.37548">
        <ele>998</ele>
        <time>2014-08-20T08:53:00Z</time>
      </trkpt>
      <trkpt lat="45.86223" lon="6.37582">
        <ele>998</ele>
        <time>2014-08-20T08:53:12Z</time>
      </trkpt>
      <trkpt lat="45.86224" lon="6.3761">
        <ele>1002</ele>
        <time>2014-08-20T08:53:22Z</time>
      </trkpt>
      <trkpt lat="45.86222" lon="6.37636">
        <ele>1002</ele>
        <time>2014-08-20T08:53:32Z</time>
      </trkpt>
      <trkpt lat="45.86222" lon="6.37664">
        <ele>1006</ele>
        <time>2014-08-20T08:53:42Z</time>
      </trkpt>
      <trkpt lat="45.86224" lon="6.37692">
        <ele>1006</ele>
        <time>2014-08-20T08:53:53Z</time>
      </trkpt>
      <trkpt lat="45.86231" lon="6.3772">
        <ele>1010</ele>
        <time>2014-08-20T08:54:03Z</time>
      </trkpt>
      <trkpt lat="45.86242" lon="6.3775">
        <ele>1010</ele>
        <time>2014-08-20T08:54:13Z</time>
      </trkpt>
      <trkpt lat="45.86252" lon="6.37778">
        <ele>1014</ele>
        <time>2014-08-20T08:54:23Z</time>
      </trkpt>
      <trkpt lat="45.86263" lon="6.37804">
        <ele>1014</ele>
        <time>2014-08-20T08:54:33Z</time>
      </trkpt>
      <trkpt lat="45.86278" lon="6.37829">
        <ele>1018</ele>
        <time>2014-08-20T08:54:43Z</time>
      </trkpt>
      <trkpt lat="45.86291" lon="6.37851">
        <ele>1018</ele>
        <time>2014-08-20T08:54:53Z</time>
      </trkpt>
      <trkpt lat="45.86298" lon="6.37882">
        <ele>1022</ele>
        <time>2014-08-20T08:55:03Z</time>
      </trkpt>
      <trkpt lat="45.86301" lon="6.3791">
        <ele>1022</ele>
        <time>2014-08-20T08:55:13Z</time>
      </trkpt>
      <trkpt lat="45.86299" lon="6.37949">
        <ele>1026</ele>
        <time>2014-08-20T08:55:23Z</time>
      </trkpt>
      <trkpt lat="45.86308" lon="6.37992">
        <ele>1030</ele>
        <time>2014-08-20T08:55:33Z</time>
      </trkpt>
      <trkpt lat="45.86327" lon="6.38029">
        <ele>1030</ele>
        <time>2014-08-20T08:55:44Z</time>
      </trkpt>
      <trkpt lat="45.86354" lon="6.38056">
        <ele>1034</ele>
        <time>2014-08-20T08:55:54Z</time>
      </trkpt>
      <trkpt lat="45.86361" lon="6.38031">
        <ele>1034</ele>
        <time>2014-08-20T08:56:04Z</time>
      </trkpt>
      <trkpt lat="45.86359" lon="6.37985">
        <ele>1038</ele>
        <time>2014-08-20T08:56:14Z</time>
      </trkpt>
      <trkpt lat="45.86364" lon="6.37946">
        <ele>1042</ele>
        <time>2014-08-20T08:56:24Z</time>
      </trkpt>
      <trkpt lat="45.86374" lon="6.37913">
        <ele>1042</ele>
        <time>2014-08-20T08:56:34Z</time>
      </trkpt>
      <trkpt lat="45.86379" lon="6.37884">
        <ele>1046</ele>
        <time>2014-08-20T08:56:44Z</time>
      </trkpt>
      <trkpt lat="45.86382" lon="6.37854">
        <ele>1046</ele>
        <time>2014-08-20T08:56:54Z</time>
      </trkpt>
      <trkpt lat="45.86384" lon="6.37827">
        <ele>1050</ele>
        <time>2014-08-20T08:57:04Z</time>
      </trkpt>
      <trkpt lat="45.86391" lon="6.378">
        <ele>1050</ele>
        <time>2014-08-20T08:57:14Z</time>
      </trkpt>
      <trkpt lat="45.86399" lon="6.37775">
        <ele>1056</ele>
        <time>2014-08-20T08:57:24Z</time>
      </trkpt>
      <trkpt lat="45.86408" lon="6.37749">
        <ele>1056</ele>
        <time>2014-08-20T08:57:34Z</time>
      </trkpt>
      <trkpt lat="45.86417" lon="6.37723">
        <ele>1060</ele>
        <time>2014-08-20T08:57:45Z</time>
      </trkpt>
      <trkpt lat="45.86422" lon="6.37702">
        <ele>1060</ele>
        <time>2014-08-20T08:57:53Z</time>
      </trkpt>
      <trkpt lat="45.86427" lon="6.37671">
        <ele>1066</ele>
        <time>2014-08-20T08:58:04Z</time>
      </trkpt>
      <trkpt lat="45.86432" lon="6.37637">
        <ele>1066</ele>
        <time>2014-08-20T08:58:15Z</time>
      </trkpt>
      <trkpt lat="45.86435" lon="6.37617">
        <ele>1070</ele>
        <time>2014-08-20T08:58:23Z</time>
      </trkpt>
      <trkpt lat="45.86442" lon="6.37587">
        <ele>1070</ele>
        <time>2014-08-20T08:58:35Z</time>
      </trkpt>
      <trkpt lat="45.86453" lon="6.37577">
        <ele>1074</ele>
        <time>2014-08-20T08:58:43Z</time>
      </trkpt>
      <trkpt lat="45.86471" lon="6.37566">
        <ele>1074</ele>
        <time>2014-08-20T08:58:55Z</time>
      </trkpt>
      <trkpt lat="45.86487" lon="6.37554">
        <ele>1078</ele>
        <time>2014-08-20T08:59:02Z</time>
      </trkpt>
      <trkpt lat="45.86494" lon="6.37535">
        <ele>1078</ele>
        <time>2014-08-20T08:59:14Z</time>
      </trkpt>
      <trkpt lat="45.865" lon="6.375">
        <ele>1082</ele>
        <time>2014-08-20T08:59:23Z</time>
      </trkpt>
      <trkpt lat="45.86506" lon="6.37479">
        <ele>1082</ele>
        <time>2014-08-20T08:59:35Z</time>
      </trkpt>
      <trkpt lat="45.8652" lon="6.37453">
        <ele>1086</ele>
        <time>2014-08-20T08:59:43Z</time>
      </trkpt>
      <trkpt lat="45.8653" lon="6.37435">
        <ele>1086</ele>
        <time>2014-08-20T08:59:55Z</time>
      </trkpt>
      <trkpt lat="45.86546" lon="6.37418">
        <ele>1090</ele>
        <time>2014-08-20T09:00:06Z</time>
      </trkpt>
      <trkpt lat="45.8656" lon="6.37408">
        <ele>1090</ele>
        <time>2014-08-20T09:00:14Z</time>
      </trkpt>
      <trkpt lat="45.8658" lon="6.37393">
        <ele>1094</ele>
        <time>2014-08-20T09:00:26Z</time>
      </trkpt>
      <trkpt lat="45.86594" lon="6.37379">
        <ele>1094</ele>
        <time>2014-08-20T09:00:34Z</time>
      </trkpt>
      <trkpt lat="45.86613" lon="6.37379">
        <ele>1098</ele>
        <time>2014-08-20T09:00:46Z</time>
      </trkpt>
      <trkpt lat="45.86604" lon="6.37395">
        <ele>1098</ele>
        <time>2014-08-20T09:00:54Z</time>
      </trkpt>
      <trkpt lat="45.86594" lon="6.37418">
        <ele>1102</ele>
        <time>2014-08-20T09:01:05Z</time>
      </trkpt>
      <trkpt lat="45.86591" lon="6.3744">
        <ele>1102</ele>
        <time>2014-08-20T09:01:13Z</time>
      </trkpt>
      <trkpt lat="45.86588" lon="6.37474">
        <ele>1106</ele>
        <time>2014-08-20T09:01:25Z</time>
      </trkpt>
      <trkpt lat="45.86588" lon="6.37496">
        <ele>1106</ele>
        <time>2014-08-20T09:01:34Z</time>
      </trkpt>
      <trkpt lat="45.8659" lon="6.37521">
        <ele>1110</ele>
        <time>2014-08-20T09:01:46Z</time>
      </trkpt>
      <trkpt lat="45.86591" lon="6.37541">
        <ele>1110</ele>
        <time>2014-08-20T09:01:54Z</time>
      </trkpt>
      <trkpt lat="45.86599" lon="6.37573">
        <ele>1114</ele>
        <time>2014-08-20T09:02:05Z</time>
      </trkpt>
      <trkpt lat="45.86606" lon="6.37602">
        <ele>1118</ele>
        <time>2014-08-20T09:02:17Z</time>
      </trkpt>
      <trkpt lat="45.8661" lon="6.37625">
        <ele>1118</ele>
        <time>2014-08-20T09:02:25Z</time>
      </trkpt>
      <trkpt lat="45.86618" lon="6.37656">
        <ele>1122</ele>
        <time>2014-08-20T09:02:37Z</time>
      </trkpt>
      <trkpt lat="45.8662" lon="6.37676">
        <ele>1122</ele>
        <time>2014-08-20T09:02:45Z</time>
      </trkpt>
      <trkpt lat="45.86626" lon="6.37711">
        <ele>1126</ele>
        <time>2014-08-20T09:02:57Z</time>
      </trkpt>
      <trkpt lat="45.8663" lon="6.37731">
        <ele>1126</ele>
        <time>2014-08-20T09:03:04Z</time>
      </trkpt>
      <trkpt lat="45.86636" lon="6.37759">
        <ele>1130</ele>
        <time>2014-08-20T09:03:16Z</time>
      </trkpt>
      <trkpt lat="45.86641" lon="6.37778">
        <ele>1130</ele>
        <time>2014-08-20T09:03:25Z</time>
      </trkpt>
      <trkpt lat="45.86649" lon="6.37806">
        <ele>1134</ele>
        <time>2014-08-20T09:03:37Z</time>
      </trkpt>
      <trkpt lat="45.86656" lon="6.37828">
        <ele>1134</ele>
        <time>2014-08-20T09:03:45Z</time>
      </trkpt>
      <trkpt lat="45.86668" lon="6.3786">
        <ele>1138</ele>
        <time>2014-08-20T09:03:57Z</time>
      </trkpt>
      <trkpt lat="45.86681" lon="6.37885">
        <ele>1138</ele>
        <time>2014-08-20T09:04:08Z</time>
      </trkpt>
      <trkpt lat="45.86694" lon="6.37896">
        <ele>1142</ele>
        <time>2014-08-20T09:04:16Z</time>
      </trkpt>
      <trkpt lat="45.86714" lon="6.37925">
        <ele>1146</ele>
        <time>2014-08-20T09:04:28Z</time>
      </trkpt>
      <trkpt lat="45.86723" lon="6.3795">
        <ele>1146</ele>
        <time>2014-08-20T09:04:36Z</time>
      </trkpt>
      <trkpt lat="45.86743" lon="6.37988">
        <ele>1150</ele>
        <time>2014-08-20T09:04:48Z</time>
      </trkpt>
      <trkpt lat="45.86759" lon="6.38005">
        <ele>1156</ele>
        <time>2014-08-20T09:04:56Z</time>
      </trkpt>
      <trkpt lat="45.86777" lon="6.37997">
        <ele>1160</ele>
        <time>2014-08-20T09:05:07Z</time>
      </trkpt>
      <trkpt lat="45.86775" lon="6.37973">
        <ele>1160</ele>
        <time>2014-08-20T09:05:15Z</time>
      </trkpt>
      <trkpt lat="45.86766" lon="6.37929">
        <ele>1160</ele>
        <time>2014-08-20T09:05:28Z</time>
      </trkpt>
      <trkpt lat="45.86764" lon="6.37902">
        <ele>1160</ele>
        <time>2014-08-20T09:05:36Z</time>
      </trkpt>
      <trkpt lat="45.86758" lon="6.3786">
        <ele>1164</ele>
        <time>2014-08-20T09:05:48Z</time>
      </trkpt>
      <trkpt lat="45.86753" lon="6.3783">
        <ele>1164</ele>
        <time>2014-08-20T09:05:56Z</time>
      </trkpt>
      <trkpt lat="45.86744" lon="6.37796">
        <ele>1168</ele>
        <time>2014-08-20T09:06:07Z</time>
      </trkpt>
      <trkpt lat="45.86745" lon="6.3776">
        <ele>1168</ele>
        <time>2014-08-20T09:06:19Z</time>
      </trkpt>
      <trkpt lat="45.86755" lon="6.37737">
        <ele>1172</ele>
        <time>2014-08-20T09:06:27Z</time>
      </trkpt>
      <trkpt lat="45.86776" lon="6.37709">
        <ele>1172</ele>
        <time>2014-08-20T09:06:39Z</time>
      </trkpt>
      <trkpt lat="45.8679" lon="6.37696">
        <ele>1176</ele>
        <time>2014-08-20T09:06:47Z</time>
      </trkpt>
      <trkpt lat="45.86815" lon="6.37676">
        <ele>1176</ele>
        <time>2014-08-20T09:06:59Z</time>
      </trkpt>
      <trkpt lat="45.86831" lon="6.3767">
        <ele>1180</ele>
        <time>2014-08-20T09:07:07Z</time>
      </trkpt>
      <trkpt lat="45.8685" lon="6.37651">
        <ele>1180</ele>
        <time>2014-08-20T09:07:20Z</time>
      </trkpt>
      <trkpt lat="45.86857" lon="6.37628">
        <ele>1180</ele>
        <time>2014-08-20T09:07:28Z</time>
      </trkpt>
      <trkpt lat="45.86866" lon="6.37591">
        <ele>1184</ele>
        <time>2014-08-20T09:07:40Z</time>
      </trkpt>
      <trkpt lat="45.8688" lon="6.37577">
        <ele>1184</ele>
        <time>2014-08-20T09:07:48Z</time>
      </trkpt>
      <trkpt lat="45.86901" lon="6.37551">
        <ele>1188</ele>
        <time>2014-08-20T09:08:00Z</time>
      </trkpt>
      <trkpt lat="45.86921" lon="6.37546">
        <ele>1188</ele>
        <time>2014-08-20T09:08:08Z</time>
      </trkpt>
      <trkpt lat="45.86948" lon="6.37539">
        <ele>1192</ele>
        <time>2014-08-20T09:08:20Z</time>
      </trkpt>
      <trkpt lat="45.86963" lon="6.37535">
        <ele>1192</ele>
        <time>2014-08-20T09:08:28Z</time>
      </trkpt>
      <trkpt lat="45.86991" lon="6.37531">
        <ele>1192</ele>
        <time>2014-08-20T09:08:40Z</time>
      </trkpt>
      <trkpt lat="45.87008" lon="6.37529">
        <ele>1196</ele>
        <time>2014-08-20T09:08:48Z</time>
      </trkpt>
      <trkpt lat="45.87039" lon="6.3751">
        <ele>1196</ele>
        <time>2014-08-20T09:09:00Z</time>
      </trkpt>
      <trkpt lat="45.87049" lon="6.37491">
        <ele>1200</ele>
        <time>2014-08-20T09:09:08Z</time>
      </trkpt>
      <trkpt lat="45.87062" lon="6.37455">
        <ele>1200</ele>
        <time>2014-08-20T09:09:21Z</time>
      </trkpt>
      <trkpt lat="45.87078" lon="6.37434">
        <ele>1200</ele>
        <time>2014-08-20T09:09:29Z</time>
      </trkpt>
      <trkpt lat="45.87102" lon="6.37411">
        <ele>1204</ele>
        <time>2014-08-20T09:09:41Z</time>
      </trkpt>
      <trkpt lat="45.87114" lon="6.3739">
        <ele>1204</ele>
        <time>2014-08-20T09:09:49Z</time>
      </trkpt>
      <trkpt lat="45.8712" lon="6.37362">
        <ele>1208</ele>
        <time>2014-08-20T09:09:58Z</time>
      </trkpt>
      <trkpt lat="45.87133" lon="6.37332">
        <ele>1208</ele>
        <time>2014-08-20T09:10:10Z</time>
      </trkpt>
      <trkpt lat="45.87146" lon="6.37344">
        <ele>1208</ele>
        <time>2014-08-20T09:10:19Z</time>
      </trkpt>
      <trkpt lat="45.87148" lon="6.37373">
        <ele>1212</ele>
        <time>2014-08-20T09:10:28Z</time>
      </trkpt>
      <trkpt lat="45.87145" lon="6.37413">
        <ele>1212</ele>
        <time>2014-08-20T09:10:40Z</time>
      </trkpt>
      <trkpt lat="45.87142" lon="6.37449">
        <ele>1216</ele>
        <time>2014-08-20T09:10:49Z</time>
      </trkpt>
      <trkpt lat="45.87139" lon="6.37486">
        <ele>1220</ele>
        <time>2014-08-20T09:10:58Z</time>
      </trkpt>
      <trkpt lat="45.87132" lon="6.37525">
        <ele>1220</ele>
        <time>2014-08-20T09:11:11Z</time>
      </trkpt>
      <trkpt lat="45.87124" lon="6.37553">
        <ele>1220</ele>
        <time>2014-08-20T09:11:20Z</time>
      </trkpt>
      <trkpt lat="45.87114" lon="6.37586">
        <ele>1226</ele>
        <time>2014-08-20T09:11:31Z</time>
      </trkpt>
      <trkpt lat="45.87113" lon="6.37606">
        <ele>1226</ele>
        <time>2014-08-20T09:11:40Z</time>
      </trkpt>
      <trkpt lat="45.87115" lon="6.37627">
        <ele>1226</ele>
        <time>2014-08-20T09:11:49Z</time>
      </trkpt>
      <trkpt lat="45.87118" lon="6.3767">
        <ele>1230</ele>
        <time>2014-08-20T09:12:02Z</time>
      </trkpt>
      <trkpt lat="45.87119" lon="6.37694">
        <ele>1230</ele>
        <time>2014-08-20T09:12:10Z</time>
      </trkpt>
      <trkpt lat="45.87118" lon="6.37722">
        <ele>1234</ele>
        <time>2014-08-20T09:12:19Z</time>
      </trkpt>
      <trkpt lat="45.87121" lon="6.37762">
        <ele>1234</ele>
        <time>2014-08-20T09:12:32Z</time>
      </trkpt>
      <trkpt lat="45.87117" lon="6.37789">
        <ele>1238</ele>
        <time>2014-08-20T09:12:41Z</time>
      </trkpt>
      <trkpt lat="45.87116" lon="6.37802">
        <ele>1238</ele>
        <time>2014-08-20T09:12:49Z</time>
      </trkpt>
      <trkpt lat="45.87112" lon="6.37855">
        <ele>1242</ele>
        <time>2014-08-20T09:13:02Z</time>
      </trkpt>
      <trkpt lat="45.87108" lon="6.37873">
        <ele>1242</ele>
        <time>2014-08-20T09:13:10Z</time>
      </trkpt>
      <trkpt lat="45.87095" lon="6.37931">
        <ele>1246</ele>
        <time>2014-08-20T09:13:19Z</time>
      </trkpt>
      <trkpt lat="45.87095" lon="6.37967">
        <ele>1246</ele>
        <time>2014-08-20T09:13:32Z</time>
      </trkpt>
      <trkpt lat="45.87096" lon="6.37999">
        <ele>1250</ele>
        <time>2014-08-20T09:13:41Z</time>
      </trkpt>
      <trkpt lat="45.87097" lon="6.38031">
        <ele>1250</ele>
        <time>2014-08-20T09:13:50Z</time>
      </trkpt>
      <trkpt lat="45.87108" lon="6.38071">
        <ele>1254</ele>
        <time>2014-08-20T09:14:03Z</time>
      </trkpt>
      <trkpt lat="45.87119" lon="6.38097">
        <ele>1254</ele>
        <time>2014-08-20T09:14:12Z</time>
      </trkpt>
      <trkpt lat="45.87129" lon="6.38123">
        <ele>1254</ele>
        <time>2014-08-20T09:14:21Z</time>
      </trkpt>
      <trkpt lat="45.8714" lon="6.38147">
        <ele>1258</ele>
        <time>2014-08-20T09:14:30Z</time>
      </trkpt>
      <trkpt lat="45.87155" lon="6.38184">
        <ele>1258</ele>
        <time>2014-08-20T09:14:40Z</time>
      </trkpt>
      <trkpt lat="45.87164" lon="6.38208">
        <ele>1258</ele>
        <time>2014-08-20T09:14:53Z</time>
      </trkpt>
      <trkpt lat="45.87173" lon="6.38235">
        <ele>1264</ele>
        <time>2014-08-20T09:15:02Z</time>
      </trkpt>
      <trkpt lat="45.87181" lon="6.38265">
        <ele>1264</ele>
        <time>2014-08-20T09:15:11Z</time>
      </trkpt>
      <trkpt lat="45.87181" lon="6.38271">
        <ele>1264</ele>
        <time>2014-08-20T09:15:20Z</time>
      </trkpt>
      <trkpt lat="45.87179" lon="6.38329">
        <ele>1268</ele>
        <time>2014-08-20T09:15:33Z</time>
      </trkpt>
      <trkpt lat="45.87186" lon="6.38359">
        <ele>1268</ele>
        <time>2014-08-20T09:15:42Z</time>
      </trkpt>
      <trkpt lat="45.87191" lon="6.3839">
        <ele>1272</ele>
        <time>2014-08-20T09:15:51Z</time>
      </trkpt>
      <trkpt lat="45.87184" lon="6.38419">
        <ele>1272</ele>
        <time>2014-08-20T09:16:00Z</time>
      </trkpt>
      <trkpt lat="45.87167" lon="6.38456">
        <ele>1272</ele>
        <time>2014-08-20T09:16:13Z</time>
      </trkpt>
      <trkpt lat="45.8716" lon="6.38483">
        <ele>1276</ele>
        <time>2014-08-20T09:16:23Z</time>
      </trkpt>
      <trkpt lat="45.87162" lon="6.38514">
        <ele>1276</ele>
        <time>2014-08-20T09:16:32Z</time>
      </trkpt>
      <trkpt lat="45.87157" lon="6.38545">
        <ele>1280</ele>
        <time>2014-08-20T09:16:41Z</time>
      </trkpt>
      <trkpt lat="45.87167" lon="6.38584">
        <ele>1280</ele>
        <time>2014-08-20T09:16:54Z</time>
      </trkpt>
      <trkpt lat="45.87173" lon="6.38617">
        <ele>1284</ele>
        <time>2014-08-20T09:17:03Z</time>
      </trkpt>
      <trkpt lat="45.87184" lon="6.38646">
        <ele>1284</ele>
        <time>2014-08-20T09:17:13Z</time>
      </trkpt>
      <trkpt lat="45.87194" lon="6.38675">
        <ele>1288</ele>
        <time>2014-08-20T09:17:23Z</time>
      </trkpt>
      <trkpt lat="45.872" lon="6.38703">
        <ele>1288</ele>
        <time>2014-08-20T09:17:33Z</time>
      </trkpt>
      <trkpt lat="45.87193" lon="6.38729">
        <ele>1292</ele>
        <time>2014-08-20T09:17:43Z</time>
      </trkpt>
      <trkpt lat="45.87185" lon="6.38751">
        <ele>1292</ele>
        <time>2014-08-20T09:17:53Z</time>
      </trkpt>
      <trkpt lat="45.87177" lon="6.38777">
        <ele>1296</ele>
        <time>2014-08-20T09:18:02Z</time>
      </trkpt>
      <trkpt lat="45.8717" lon="6.38809">
        <ele>1296</ele>
        <time>2014-08-20T09:18:13Z</time>
      </trkpt>
      <trkpt lat="45.87174" lon="6.3884">
        <ele>1300</ele>
        <time>2014-08-20T09:18:23Z</time>
      </trkpt>
      <trkpt lat="45.87181" lon="6.38866">
        <ele>1300</ele>
        <time>2014-08-20T09:18:33Z</time>
      </trkpt>
      <trkpt lat="45.87188" lon="6.38898">
        <ele>1300</ele>
        <time>2014-08-20T09:18:43Z</time>
      </trkpt>
      <trkpt lat="45.87195" lon="6.38928">
        <ele>1304</ele>
        <time>2014-08-20T09:18:53Z</time>
      </trkpt>
      <trkpt lat="45.87199" lon="6.38958">
        <ele>1304</ele>
        <time>2014-08-20T09:19:07Z</time>
      </trkpt>
      <trkpt lat="45.87203" lon="6.38986">
        <ele>1304</ele>
        <time>2014-08-20T09:19:12Z</time>
      </trkpt>
      <trkpt lat="45.87209" lon="6.39019">
        <ele>1308</ele>
        <time>2014-08-20T09:19:22Z</time>
      </trkpt>
      <trkpt lat="45.87218" lon="6.39058">
        <ele>1312</ele>
        <time>2014-08-20T09:19:32Z</time>
      </trkpt>
      <trkpt lat="45.87222" lon="6.39072">
        <ele>1312</ele>
        <time>2014-08-20T09:19:44Z</time>
      </trkpt>
      <trkpt lat="45.87238" lon="6.391">
        <ele>1316</ele>
        <time>2014-08-20T09:19:53Z</time>
      </trkpt>
      <trkpt lat="45.87254" lon="6.39117">
        <ele>1316</ele>
        <time>2014-08-20T09:20:02Z</time>
      </trkpt>
      <trkpt lat="45.87268" lon="6.39139">
        <ele>1320</ele>
        <time>2014-08-20T09:20:12Z</time>
      </trkpt>
      <trkpt lat="45.8728" lon="6.39177">
        <ele>1320</ele>
        <time>2014-08-20T09:20:22Z</time>
      </trkpt>
      <trkpt lat="45.87284" lon="6.39207">
        <ele>1320</ele>
        <time>2014-08-20T09:20:32Z</time>
      </trkpt>
      <trkpt lat="45.87281" lon="6.39236">
        <ele>1324</ele>
        <time>2014-08-20T09:20:46Z</time>
      </trkpt>
      <trkpt lat="45.87279" lon="6.3927">
        <ele>1324</ele>
        <time>2014-08-20T09:20:56Z</time>
      </trkpt>
      <trkpt lat="45.87286" lon="6.39298">
        <ele>1328</ele>
        <time>2014-08-20T09:21:05Z</time>
      </trkpt>
      <trkpt lat="45.87293" lon="6.39323">
        <ele>1328</ele>
        <time>2014-08-20T09:21:15Z</time>
      </trkpt>
      <trkpt lat="45.87308" lon="6.39354">
        <ele>1328</ele>
        <time>2014-08-20T09:21:25Z</time>
      </trkpt>
      <trkpt lat="45.87324" lon="6.39379">
        <ele>1332</ele>
        <time>2014-08-20T09:21:35Z</time>
      </trkpt>
      <trkpt lat="45.8734" lon="6.39404">
        <ele>1332</ele>
        <time>2014-08-20T09:21:45Z</time>
      </trkpt>
      <trkpt lat="45.87356" lon="6.39429">
        <ele>1338</ele>
        <time>2014-08-20T09:21:55Z</time>
      </trkpt>
      <trkpt lat="45.87373" lon="6.39457">
        <ele>1338</ele>
        <time>2014-08-20T09:22:05Z</time>
      </trkpt>
      <trkpt lat="45.87381" lon="6.39469">
        <ele>1342</ele>
        <time>2014-08-20T09:22:14Z</time>
      </trkpt>
      <trkpt lat="45.87395" lon="6.39526">
        <ele>1342</ele>
        <time>2014-08-20T09:22:23Z</time>
      </trkpt>
      <trkpt lat="45.87399" lon="6.39559">
        <ele>1342</ele>
        <time>2014-08-20T09:22:33Z</time>
      </trkpt>
      <trkpt lat="45.87403" lon="6.39591">
        <ele>1346</ele>
        <time>2014-08-20T09:22:46Z</time>
      </trkpt>
      <trkpt lat="45.87408" lon="6.39624">
        <ele>1346</ele>
        <time>2014-08-20T09:22:56Z</time>
      </trkpt>
      <trkpt lat="45.87412" lon="6.39658">
        <ele>1346</ele>
        <time>2014-08-20T09:23:05Z</time>
      </trkpt>
      <trkpt lat="45.87418" lon="6.39697">
        <ele>1346</ele>
        <time>2014-08-20T09:23:15Z</time>
      </trkpt>
      <trkpt lat="45.87426" lon="6.39745">
        <ele>1352</ele>
        <time>2014-08-20T09:23:25Z</time>
      </trkpt>
      <trkpt lat="45.87434" lon="6.39788">
        <ele>1356</ele>
        <time>2014-08-20T09:23:36Z</time>
      </trkpt>
      <trkpt lat="45.87441" lon="6.3983">
        <ele>1356</ele>
        <time>2014-08-20T09:23:46Z</time>
      </trkpt>
      <trkpt lat="45.87453" lon="6.39872">
        <ele>1362</ele>
        <time>2014-08-20T09:23:56Z</time>
      </trkpt>
      <trkpt lat="45.87471" lon="6.39904">
        <ele>1362</ele>
        <time>2014-08-20T09:24:05Z</time>
      </trkpt>
      <trkpt lat="45.87479" lon="6.39934">
        <ele>1366</ele>
        <time>2014-08-20T09:24:15Z</time>
      </trkpt>
      <trkpt lat="45.87465" lon="6.39961">
        <ele>1366</ele>
        <time>2014-08-20T09:24:25Z</time>
      </trkpt>
      <trkpt lat="45.87452" lon="6.39987">
        <ele>1370</ele>
        <time>2014-08-20T09:24:35Z</time>
      </trkpt>
      <trkpt lat="45.87446" lon="6.40018">
        <ele>1370</ele>
        <time>2014-08-20T09:24:45Z</time>
      </trkpt>
      <trkpt lat="45.87445" lon="6.4005">
        <ele>1374</ele>
        <time>2014-08-20T09:24:55Z</time>
      </trkpt>
      <trkpt lat="45.87445" lon="6.40083">
        <ele>1374</ele>
        <time>2014-08-20T09:25:05Z</time>
      </trkpt>
      <trkpt lat="45.87446" lon="6.40115">
        <ele>1378</ele>
        <time>2014-08-20T09:25:15Z</time>
      </trkpt>
      <trkpt lat="45.87453" lon="6.40139">
        <ele>1378</ele>
        <time>2014-08-20T09:25:26Z</time>
      </trkpt>
      <trkpt lat="45.87471" lon="6.40146">
        <ele>1382</ele>
        <time>2014-08-20T09:25:36Z</time>
      </trkpt>
      <trkpt lat="45.87477" lon="6.40101">
        <ele>1382</ele>
        <time>2014-08-20T09:25:46Z</time>
      </trkpt>
      <trkpt lat="45.87492" lon="6.40066">
        <ele>1382</ele>
        <time>2014-08-20T09:25:56Z</time>
      </trkpt>
      <trkpt lat="45.87518" lon="6.40048">
        <ele>1386</ele>
        <time>2014-08-20T09:26:05Z</time>
      </trkpt>
      <trkpt lat="45.87541" lon="6.40036">
        <ele>1386</ele>
        <time>2014-08-20T09:26:16Z</time>
      </trkpt>
      <trkpt lat="45.87557" lon="6.40012">
        <ele>1390</ele>
        <time>2014-08-20T09:26:26Z</time>
      </trkpt>
      <trkpt lat="45.87566" lon="6.39981">
        <ele>1390</ele>
        <time>2014-08-20T09:26:36Z</time>
      </trkpt>
      <trkpt lat="45.87567" lon="6.3995">
        <ele>1390</ele>
        <time>2014-08-20T09:26:46Z</time>
      </trkpt>
      <trkpt lat="45.87567" lon="6.39918">
        <ele>1396</ele>
        <time>2014-08-20T09:26:56Z</time>
      </trkpt>
      <trkpt lat="45.87585" lon="6.39909">
        <ele>1396</ele>
        <time>2014-08-20T09:27:06Z</time>
      </trkpt>
      <trkpt lat="45.87593" lon="6.39939">
        <ele>1400</ele>
        <time>2014-08-20T09:27:17Z</time>
      </trkpt>
      <trkpt lat="45.87601" lon="6.39968">
        <ele>1400</ele>
        <time>2014-08-20T09:27:27Z</time>
      </trkpt>
      <trkpt lat="45.87612" lon="6.39994">
        <ele>1404</ele>
        <time>2014-08-20T09:27:37Z</time>
      </trkpt>
      <trkpt lat="45.87622" lon="6.40021">
        <ele>1404</ele>
        <time>2014-08-20T09:27:47Z</time>
      </trkpt>
      <trkpt lat="45.87634" lon="6.40051">
        <ele>1404</ele>
        <time>2014-08-20T09:27:57Z</time>
      </trkpt>
      <trkpt lat="45.87644" lon="6.40082">
        <ele>1408</ele>
        <time>2014-08-20T09:28:06Z</time>
      </trkpt>
      <trkpt lat="45.87653" lon="6.40116">
        <ele>1408</ele>
        <time>2014-08-20T09:28:17Z</time>
      </trkpt>
      <trkpt lat="45.8766" lon="6.40154">
        <ele>1408</ele>
        <time>2014-08-20T09:28:27Z</time>
      </trkpt>
      <trkpt lat="45.87665" lon="6.40192">
        <ele>1412</ele>
        <time>2014-08-20T09:28:37Z</time>
      </trkpt>
      <trkpt lat="45.87666" lon="6.40194">
        <ele>1412</ele>
        <time>2014-08-20T09:28:47Z</time>
      </trkpt>
      <trkpt lat="45.87666" lon="6.40194">
        <ele>1412</ele>
        <time>2014-08-20T09:28:57Z</time>
      </trkpt>
      <trkpt lat="45.87666" lon="6.40195">
        <ele>1412</ele>
        <time>2014-08-20T09:29:07Z</time>
      </trkpt>
      <trkpt lat="45.87666" lon="6.40195">
        <ele>1412</ele>
        <time>2014-08-20T09:29:18Z</time>
      </trkpt>
      <trkpt lat="45.87666" lon="6.40196">
        <ele>1412</ele>
        <time>2014-08-20T09:29:28Z</time>
      </trkpt>
      <trkpt lat="45.87666" lon="6.40196">
        <ele>1412</ele>
        <time>2014-08-20T09:29:38Z</time>
      </trkpt>
      <trkpt lat="45.87666" lon="6.40197">
        <ele>1412</ele>
        <time>2014-08-20T09:29:48Z</time>
      </trkpt>
      <trkpt lat="45.87666" lon="6.40197">
        <ele>1412</ele>
        <time>2014-08-20T09:29:58Z</time>
      </trkpt>
      <trkpt lat="45.87666" lon="6.40196">
        <ele>1412</ele>
        <time>2014-08-20T09:30:08Z</time>
      </trkpt>
      <trkpt lat="45.87666" lon="6.40195">
        <ele>1412</ele>
        <time>2014-08-20T09:30:18Z</time>
      </trkpt>
      <trkpt lat="45.87666" lon="6.40194">
        <ele>1412</ele>
        <time>2014-08-20T09:30:28Z</time>
      </trkpt>
      <trkpt lat="45.87666" lon="6.40194">
        <ele>1412</ele>
        <time>2014-08-20T09:30:38Z</time>
      </trkpt>
      <trkpt lat="45.87666" lon="6.40194">
        <ele>1414</ele>
        <time>2014-08-20T09:30:49Z</time>
      </trkpt>
      <trkpt lat="45.87666" lon="6.40196">
        <ele>1414</ele>
        <time>2014-08-20T09:31:01Z</time>
      </trkpt>
      <trkpt lat="45.87666" lon="6.40197">
        <ele>1412</ele>
        <time>2014-08-20T09:31:11Z</time>
      </trkpt>
      <trkpt lat="45.87666" lon="6.40197">
        <ele>1412</ele>
        <time>2014-08-20T09:31:17Z</time>
      </trkpt>
      <trkpt lat="45.87666" lon="6.40196">
        <ele>1412</ele>
        <time>2014-08-20T09:31:27Z</time>
      </trkpt>
      <trkpt lat="45.87666" lon="6.40196">
        <ele>1412</ele>
        <time>2014-08-20T09:31:37Z</time>
      </trkpt>
      <trkpt lat="45.87666" lon="6.40196">
        <ele>1412</ele>
        <time>2014-08-20T09:31:47Z</time>
      </trkpt>
      <trkpt lat="45.87666" lon="6.40196">
        <ele>1412</ele>
        <time>2014-08-20T09:31:58Z</time>
      </trkpt>
      <trkpt lat="45.87666" lon="6.40196">
        <ele>1412</ele>
        <time>2014-08-20T09:32:09Z</time>
      </trkpt>
      <trkpt lat="45.87666" lon="6.40195">
        <ele>1414</ele>
        <time>2014-08-20T09:32:20Z</time>
      </trkpt>
      <trkpt lat="45.87666" lon="6.40195">
        <ele>1414</ele>
        <time>2014-08-20T09:32:31Z</time>
      </trkpt>
      <trkpt lat="45.87666" lon="6.40196">
        <ele>1414</ele>
        <time>2014-08-20T09:32:38Z</time>
      </trkpt>
      <trkpt lat="45.87666" lon="6.40196">
        <ele>1414</ele>
        <time>2014-08-20T09:32:49Z</time>
      </trkpt>
      <trkpt lat="45.87666" lon="6.40196">
        <ele>1414</ele>
        <time>2014-08-20T09:33:00Z</time>
      </trkpt>
      <trkpt lat="45.87666" lon="6.40195">
        <ele>1414</ele>
        <time>2014-08-20T09:33:10Z</time>
      </trkpt>
      <trkpt lat="45.87666" lon="6.40195">
        <ele>1414</ele>
        <time>2014-08-20T09:33:21Z</time>
      </trkpt>
      <trkpt lat="45.87666" lon="6.40195">
        <ele>1414</ele>
        <time>2014-08-20T09:33:32Z</time>
      </trkpt>
      <trkpt lat="45.87666" lon="6.40196">
        <ele>1414</ele>
        <time>2014-08-20T09:33:38Z</time>
      </trkpt>
      <trkpt lat="45.87666" lon="6.40197">
        <ele>1414</ele>
        <time>2014-08-20T09:33:49Z</time>
      </trkpt>
      <trkpt lat="45.87666" lon="6.40196">
        <ele>1414</ele>
        <time>2014-08-20T09:34:00Z</time>
      </trkpt>
      <trkpt lat="45.87666" lon="6.40197">
        <ele>1414</ele>
        <time>2014-08-20T09:34:10Z</time>
      </trkpt>
      <trkpt lat="45.87666" lon="6.40197">
        <ele>1414</ele>
        <time>2014-08-20T09:34:21Z</time>
      </trkpt>
      <trkpt lat="45.87666" lon="6.40196">
        <ele>1414</ele>
        <time>2014-08-20T09:34:33Z</time>
      </trkpt>
      <trkpt lat="45.87666" lon="6.40195">
        <ele>1414</ele>
        <time>2014-08-20T09:34:39Z</time>
      </trkpt>
      <trkpt lat="45.87666" lon="6.40195">
        <ele>1414</ele>
        <time>2014-08-20T09:34:50Z</time>
      </trkpt>
      <trkpt lat="45.87666" lon="6.40196">
        <ele>1414</ele>
        <time>2014-08-20T09:35:01Z</time>
      </trkpt>
      <trkpt lat="45.87666" lon="6.40196">
        <ele>1414</ele>
        <time>2014-08-20T09:35:12Z</time>
      </trkpt>
      <trkpt lat="45.87666" lon="6.40196">
        <ele>1414</ele>
        <time>2014-08-20T09:35:23Z</time>
      </trkpt>
      <trkpt lat="45.87666" lon="6.40197">
        <ele>1414</ele>
        <time>2014-08-20T09:35:29Z</time>
      </trkpt>
      <trkpt lat="45.87666" lon="6.40196">
        <ele>1414</ele>
        <time>2014-08-20T09:35:40Z</time>
      </trkpt>
      <trkpt lat="45.87666" lon="6.40197">
        <ele>1414</ele>
        <time>2014-08-20T09:35:51Z</time>
      </trkpt>
      <trkpt lat="45.87666" lon="6.40199">
        <ele>1414</ele>
        <time>2014-08-20T09:36:02Z</time>
      </trkpt>
      <trkpt lat="45.87666" lon="6.40199">
        <ele>1412</ele>
        <time>2014-08-20T09:36:13Z</time>
      </trkpt>
      <trkpt lat="45.87666" lon="6.402">
        <ele>1412</ele>
        <time>2014-08-20T09:36:20Z</time>
      </trkpt>
      <trkpt lat="45.87667" lon="6.402">
        <ele>1412</ele>
        <time>2014-08-20T09:36:31Z</time>
      </trkpt>
      <trkpt lat="45.87666" lon="6.40199">
        <ele>1412</ele>
        <time>2014-08-20T09:36:42Z</time>
      </trkpt>
      <trkpt lat="45.87666" lon="6.40198">
        <ele>1412</ele>
        <time>2014-08-20T09:36:53Z</time>
      </trkpt>
      <trkpt lat="45.87666" lon="6.40198">
        <ele>1412</ele>
        <time>2014-08-20T09:37:04Z</time>
      </trkpt>
      <trkpt lat="45.87666" lon="6.40196">
        <ele>1412</ele>
        <time>2014-08-20T09:37:10Z</time>
      </trkpt>
      <trkpt lat="45.87666" lon="6.40196">
        <ele>1412</ele>
        <time>2014-08-20T09:37:20Z</time>
      </trkpt>
      <trkpt lat="45.87666" lon="6.40195">
        <ele>1412</ele>
        <time>2014-08-20T09:37:31Z</time>
      </trkpt>
      <trkpt lat="45.87666" lon="6.40195">
        <ele>1412</ele>
        <time>2014-08-20T09:37:42Z</time>
      </trkpt>
      <trkpt lat="45.87666" lon="6.40196">
        <ele>1412</ele>
        <time>2014-08-20T09:37:53Z</time>
      </trkpt>
      <trkpt lat="45.87666" lon="6.40198">
        <ele>1412</ele>
        <time>2014-08-20T09:38:04Z</time>
      </trkpt>
      <trkpt lat="45.87666" lon="6.40199">
        <ele>1412</ele>
        <time>2014-08-20T09:38:11Z</time>
      </trkpt>
      <trkpt lat="45.87666" lon="6.40197">
        <ele>1412</ele>
        <time>2014-08-20T09:38:22Z</time>
      </trkpt>
      <trkpt lat="45.87666" lon="6.40198">
        <ele>1412</ele>
        <time>2014-08-20T09:38:34Z</time>
      </trkpt>
      <trkpt lat="45.87666" lon="6.40198">
        <ele>1412</ele>
        <time>2014-08-20T09:38:40Z</time>
      </trkpt>
      <trkpt lat="45.87666" lon="6.40197">
        <ele>1412</ele>
        <time>2014-08-20T09:38:52Z</time>
      </trkpt>
      <trkpt lat="45.87666" lon="6.40195">
        <ele>1414</ele>
        <time>2014-08-20T09:39:04Z</time>
      </trkpt>
      <trkpt lat="45.87666" lon="6.40196">
        <ele>1414</ele>
        <time>2014-08-20T09:39:15Z</time>
      </trkpt>
      <trkpt lat="45.87666" lon="6.40196">
        <ele>1414</ele>
        <time>2014-08-20T09:39:21Z</time>
      </trkpt>
      <trkpt lat="45.87666" lon="6.40197">
        <ele>1414</ele>
        <time>2014-08-20T09:39:33Z</time>
      </trkpt>
      <trkpt lat="45.87666" lon="6.40197">
        <ele>1414</ele>
        <time>2014-08-20T09:39:45Z</time>
      </trkpt>
      <trkpt lat="45.87666" lon="6.40197">
        <ele>1414</ele>
        <time>2014-08-20T09:39:51Z</time>
      </trkpt>
      <trkpt lat="45.87666" lon="6.40197">
        <ele>1414</ele>
        <time>2014-08-20T09:40:04Z</time>
      </trkpt>
      <trkpt lat="45.87666" lon="6.40197">
        <ele>1412</ele>
        <time>2014-08-20T09:40:15Z</time>
      </trkpt>
      <trkpt lat="45.87666" lon="6.40198">
        <ele>1412</ele>
        <time>2014-08-20T09:40:21Z</time>
      </trkpt>
      <trkpt lat="45.87666" lon="6.40199">
        <ele>1412</ele>
        <time>2014-08-20T09:40:33Z</time>
      </trkpt>
      <trkpt lat="45.87666" lon="6.40199">
        <ele>1412</ele>
        <time>2014-08-20T09:40:44Z</time>
      </trkpt>
      <trkpt lat="45.87666" lon="6.40197">
        <ele>1412</ele>
        <time>2014-08-20T09:40:55Z</time>
      </trkpt>
      <trkpt lat="45.87666" lon="6.40196">
        <ele>1412</ele>
        <time>2014-08-20T09:41:06Z</time>
      </trkpt>
      <trkpt lat="45.87666" lon="6.40196">
        <ele>1412</ele>
        <time>2014-08-20T09:41:12Z</time>
      </trkpt>
      <trkpt lat="45.87666" lon="6.40198">
        <ele>1412</ele>
        <time>2014-08-20T09:41:24Z</time>
      </trkpt>
      <trkpt lat="45.87666" lon="6.40199">
        <ele>1414</ele>
        <time>2014-08-20T09:41:36Z</time>
      </trkpt>
      <trkpt lat="45.87667" lon="6.402">
        <ele>1414</ele>
        <time>2014-08-20T09:41:43Z</time>
      </trkpt>
      <trkpt lat="45.87667" lon="6.40201">
        <ele>1414</ele>
        <time>2014-08-20T09:41:55Z</time>
      </trkpt>
      <trkpt lat="45.87667" lon="6.40203">
        <ele>1414</ele>
        <time>2014-08-20T09:42:06Z</time>
      </trkpt>
      <trkpt lat="45.87667" lon="6.40204">
        <ele>1414</ele>
        <time>2014-08-20T09:42:12Z</time>
      </trkpt>
      <trkpt lat="45.87667" lon="6.40204">
        <ele>1414</ele>
        <time>2014-08-20T09:42:24Z</time>
      </trkpt>
      <trkpt lat="45.87667" lon="6.40204">
        <ele>1414</ele>
        <time>2014-08-20T09:42:36Z</time>
      </trkpt>
      <trkpt lat="45.87667" lon="6.40202">
        <ele>1414</ele>
        <time>2014-08-20T09:42:42Z</time>
      </trkpt>
      <trkpt lat="45.87667" lon="6.40202">
        <ele>1414</ele>
        <time>2014-08-20T09:42:54Z</time>
      </trkpt>
      <trkpt lat="45.87666" lon="6.40199">
        <ele>1414</ele>
        <time>2014-08-20T09:43:05Z</time>
      </trkpt>
      <trkpt lat="45.87666" lon="6.40198">
        <ele>1414</ele>
        <time>2014-08-20T09:43:17Z</time>
      </trkpt>
      <trkpt lat="45.87666" lon="6.40199">
        <ele>1414</ele>
        <time>2014-08-20T09:43:23Z</time>
      </trkpt>
      <trkpt lat="45.87667" lon="6.40201">
        <ele>1412</ele>
        <time>2014-08-20T09:43:36Z</time>
      </trkpt>
      <trkpt lat="45.87667" lon="6.40202">
        <ele>1412</ele>
        <time>2014-08-20T09:43:48Z</time>
      </trkpt>
      <trkpt lat="45.87667" lon="6.40203">
        <ele>1412</ele>
        <time>2014-08-20T09:43:54Z</time>
      </trkpt>
      <trkpt lat="45.87667" lon="6.40202">
        <ele>1412</ele>
        <time>2014-08-20T09:44:06Z</time>
      </trkpt>
      <trkpt lat="45.87667" lon="6.40201">
        <ele>1412</ele>
        <time>2014-08-20T09:44:18Z</time>
      </trkpt>
      <trkpt lat="45.87666" lon="6.40199">
        <ele>1412</ele>
        <time>2014-08-20T09:44:24Z</time>
      </trkpt>
      <trkpt lat="45.87666" lon="6.40196">
        <ele>1412</ele>
        <time>2014-08-20T09:44:36Z</time>
      </trkpt>
      <trkpt lat="45.87666" lon="6.40194">
        <ele>1412</ele>
        <time>2014-08-20T09:44:48Z</time>
      </trkpt>
      <trkpt lat="45.87665" lon="6.40192">
        <ele>1412</ele>
        <time>2014-08-20T09:44:54Z</time>
      </trkpt>
      <trkpt lat="45.87665" lon="6.40193">
        <ele>1412</ele>
        <time>2014-08-20T09:45:06Z</time>
      </trkpt>
      <trkpt lat="45.87666" lon="6.40196">
        <ele>1412</ele>
        <time>2014-08-20T09:45:18Z</time>
      </trkpt>
      <trkpt lat="45.87666" lon="6.40196">
        <ele>1412</ele>
        <time>2014-08-20T09:45:25Z</time>
      </trkpt>
      <trkpt lat="45.87666" lon="6.40195">
        <ele>1412</ele>
        <time>2014-08-20T09:45:37Z</time>
      </trkpt>
      <trkpt lat="45.87667" lon="6.402">
        <ele>1412</ele>
        <time>2014-08-20T09:45:49Z</time>
      </trkpt>
      <trkpt lat="45.87667" lon="6.40202">
        <ele>1412</ele>
        <time>2014-08-20T09:45:55Z</time>
      </trkpt>
      <trkpt lat="45.87667" lon="6.40202">
        <ele>1412</ele>
        <time>2014-08-20T09:46:06Z</time>
      </trkpt>
      <trkpt lat="45.87667" lon="6.40201">
        <ele>1412</ele>
        <time>2014-08-20T09:46:18Z</time>
      </trkpt>
      <trkpt lat="45.87667" lon="6.40201">
        <ele>1412</ele>
        <time>2014-08-20T09:46:25Z</time>
      </trkpt>
      <trkpt lat="45.87666" lon="6.40198">
        <ele>1412</ele>
        <time>2014-08-20T09:46:37Z</time>
      </trkpt>
      <trkpt lat="45.87666" lon="6.40197">
        <ele>1412</ele>
        <time>2014-08-20T09:46:49Z</time>
      </trkpt>
      <trkpt lat="45.87666" lon="6.40195">
        <ele>1412</ele>
        <time>2014-08-20T09:46:55Z</time>
      </trkpt>
      <trkpt lat="45.87666" lon="6.40195">
        <ele>1412</ele>
        <time>2014-08-20T09:47:07Z</time>
      </trkpt>
      <trkpt lat="45.87666" lon="6.40195">
        <ele>1412</ele>
        <time>2014-08-20T09:47:19Z</time>
      </trkpt>
      <trkpt lat="45.87666" lon="6.40196">
        <ele>1412</ele>
        <time>2014-08-20T09:47:25Z</time>
      </trkpt>
      <trkpt lat="45.87666" lon="6.40198">
        <ele>1412</ele>
        <time>2014-08-20T09:47:37Z</time>
      </trkpt>
      <trkpt lat="45.87667" lon="6.402">
        <ele>1414</ele>
        <time>2014-08-20T09:47:48Z</time>
      </trkpt>
      <trkpt lat="45.87667" lon="6.402">
        <ele>1414</ele>
        <time>2014-08-20T09:47:55Z</time>
      </trkpt>
      <trkpt lat="45.87667" lon="6.40202">
        <ele>1414</ele>
        <time>2014-08-20T09:48:06Z</time>
      </trkpt>
      <trkpt lat="45.87666" lon="6.402">
        <ele>1414</ele>
        <time>2014-08-20T09:48:19Z</time>
      </trkpt>
      <trkpt lat="45.87666" lon="6.402">
        <ele>1414</ele>
        <time>2014-08-20T09:48:25Z</time>
      </trkpt>
      <trkpt lat="45.87666" lon="6.40195">
        <ele>1414</ele>
        <time>2014-08-20T09:48:38Z</time>
      </trkpt>
      <trkpt lat="45.87666" lon="6.40195">
        <ele>1414</ele>
        <time>2014-08-20T09:48:45Z</time>
      </trkpt>
      <trkpt lat="45.87666" lon="6.40196">
        <ele>1412</ele>
        <time>2014-08-20T09:48:59Z</time>
      </trkpt>
      <trkpt lat="45.87666" lon="6.40197">
        <ele>1412</ele>
        <time>2014-08-20T09:49:06Z</time>
      </trkpt>
      <trkpt lat="45.87666" lon="6.40196">
        <ele>1412</ele>
        <time>2014-08-20T09:49:18Z</time>
      </trkpt>
      <trkpt lat="45.87663" lon="6.40179">
        <ele>1412</ele>
        <time>2014-08-20T09:49:31Z</time>
      </trkpt>
      <trkpt lat="45.87663" lon="6.40176">
        <ele>1412</ele>
        <time>2014-08-20T09:49:38Z</time>
      </trkpt>
      <trkpt lat="45.87663" lon="6.40175">
        <ele>1412</ele>
        <time>2014-08-20T09:49:51Z</time>
      </trkpt>
      <trkpt lat="45.87663" lon="6.40175">
        <ele>1412</ele>
        <time>2014-08-20T09:49:57Z</time>
      </trkpt>
      <trkpt lat="45.87662" lon="6.40171">
        <ele>1412</ele>
        <time>2014-08-20T09:50:10Z</time>
      </trkpt>
      <trkpt lat="45.87662" lon="6.4017">
        <ele>1412</ele>
        <time>2014-08-20T09:50:16Z</time>
      </trkpt>
      <trkpt lat="45.87662" lon="6.4017">
        <ele>1412</ele>
        <time>2014-08-20T09:50:29Z</time>
      </trkpt>
      <trkpt lat="45.87662" lon="6.4017">
        <ele>1412</ele>
        <time>2014-08-20T09:50:36Z</time>
      </trkpt>
      <trkpt lat="45.87662" lon="6.40169">
        <ele>1412</ele>
        <time>2014-08-20T09:50:50Z</time>
      </trkpt>
      <trkpt lat="45.87662" lon="6.4017">
        <ele>1412</ele>
        <time>2014-08-20T09:50:57Z</time>
      </trkpt>
      <trkpt lat="45.87662" lon="6.40171">
        <ele>1412</ele>
        <time>2014-08-20T09:51:09Z</time>
      </trkpt>
      <trkpt lat="45.87663" lon="6.40174">
        <ele>1412</ele>
        <time>2014-08-20T09:51:16Z</time>
      </trkpt>
      <trkpt lat="45.87663" lon="6.40173">
        <ele>1412</ele>
        <time>2014-08-20T09:51:29Z</time>
      </trkpt>
      <trkpt lat="45.87662" lon="6.40172">
        <ele>1412</ele>
        <time>2014-08-20T09:51:36Z</time>
      </trkpt>
      <trkpt lat="45.87662" lon="6.40172">
        <ele>1412</ele>
        <time>2014-08-20T09:51:48Z</time>
      </trkpt>
      <trkpt lat="45.87663" lon="6.40176">
        <ele>1412</ele>
        <time>2014-08-20T09:52:01Z</time>
      </trkpt>
      <trkpt lat="45.87663" lon="6.40177">
        <ele>1412</ele>
        <time>2014-08-20T09:52:07Z</time>
      </trkpt>
      <trkpt lat="45.87663" lon="6.40178">
        <ele>1412</ele>
        <time>2014-08-20T09:52:20Z</time>
      </trkpt>
      <trkpt lat="45.87663" lon="6.4018">
        <ele>1412</ele>
        <time>2014-08-20T09:52:28Z</time>
      </trkpt>
      <trkpt lat="45.87664" lon="6.40181">
        <ele>1412</ele>
        <time>2014-08-20T09:52:41Z</time>
      </trkpt>
      <trkpt lat="45.87663" lon="6.40181">
        <ele>1412</ele>
        <time>2014-08-20T09:52:48Z</time>
      </trkpt>
      <trkpt lat="45.87663" lon="6.40179">
        <ele>1412</ele>
        <time>2014-08-20T09:53:01Z</time>
      </trkpt>
      <trkpt lat="45.87663" lon="6.4018">
        <ele>1412</ele>
        <time>2014-08-20T09:53:07Z</time>
      </trkpt>
      <trkpt lat="45.87663" lon="6.4018">
        <ele>1412</ele>
        <time>2014-08-20T09:53:20Z</time>
      </trkpt>
      <trkpt lat="45.87663" lon="6.4018">
        <ele>1412</ele>
        <time>2014-08-20T09:53:32Z</time>
      </trkpt>
      <trkpt lat="45.87663" lon="6.40177">
        <ele>1412</ele>
        <time>2014-08-20T09:53:39Z</time>
      </trkpt>
      <trkpt lat="45.87664" lon="6.40185">
        <ele>1412</ele>
        <time>2014-08-20T09:53:52Z</time>
      </trkpt>
      <trkpt lat="45.87666" lon="6.40198">
        <ele>1412</ele>
        <time>2014-08-20T09:53:59Z</time>
      </trkpt>
      <trkpt lat="45.87677" lon="6.40245">
        <ele>1412</ele>
        <time>2014-08-20T09:54:13Z</time>
      </trkpt>
      <trkpt lat="45.87687" lon="6.40271">
        <ele>1412</ele>
        <time>2014-08-20T09:54:20Z</time>
      </trkpt>
      <trkpt lat="45.87695" lon="6.40318">
        <ele>1412</ele>
        <time>2014-08-20T09:54:33Z</time>
      </trkpt>
      <trkpt lat="45.87692" lon="6.40341">
        <ele>1412</ele>
        <time>2014-08-20T09:54:40Z</time>
      </trkpt>
      <trkpt lat="45.87682" lon="6.40391">
        <ele>1416</ele>
        <time>2014-08-20T09:54:53Z</time>
      </trkpt>
      <trkpt lat="45.87683" lon="6.40425">
        <ele>1416</ele>
        <time>2014-08-20T09:55:05Z</time>
      </trkpt>
      <trkpt lat="45.87687" lon="6.40466">
        <ele>1420</ele>
        <time>2014-08-20T09:55:08Z</time>
      </trkpt>
      <trkpt lat="45.8769" lon="6.405">
        <ele>1420</ele>
        <time>2014-08-20T09:55:19Z</time>
      </trkpt>
      <trkpt lat="45.87695" lon="6.4053">
        <ele>1420</ele>
        <time>2014-08-20T09:55:34Z</time>
      </trkpt>
      <trkpt lat="45.87708" lon="6.40578">
        <ele>1420</ele>
        <time>2014-08-20T09:55:41Z</time>
      </trkpt>
      <trkpt lat="45.87735" lon="6.40607">
        <ele>1420</ele>
        <time>2014-08-20T09:55:50Z</time>
      </trkpt>
      <trkpt lat="45.87781" lon="6.40646">
        <ele>1420</ele>
        <time>2014-08-20T09:56:06Z</time>
      </trkpt>
      <trkpt lat="45.87811" lon="6.40728">
        <ele>1410</ele>
        <time>2014-08-20T09:56:20Z</time>
      </trkpt>
      <trkpt lat="45.87811" lon="6.40728">
        <ele>1410</ele>
        <time>2014-08-20T09:56:31Z</time>
      </trkpt>
      <trkpt lat="45.87902" lon="6.40969">
        <ele>1400</ele>
        <time>2014-08-20T09:56:41Z</time>
      </trkpt>
      <trkpt lat="45.87891" lon="6.41157">
        <ele>1386</ele>
        <time>2014-08-20T09:56:49Z</time>
      </trkpt>
      <trkpt lat="45.87899" lon="6.41256">
        <ele>1378</ele>
        <time>2014-08-20T09:56:59Z</time>
      </trkpt>
      <trkpt lat="45.87912" lon="6.41448">
        <ele>1364</ele>
        <time>2014-08-20T09:57:10Z</time>
      </trkpt>
      <trkpt lat="45.87912" lon="6.41622">
        <ele>1352</ele>
        <time>2014-08-20T09:57:19Z</time>
      </trkpt>
      <trkpt lat="45.87899" lon="6.41756">
        <ele>1344</ele>
        <time>2014-08-20T09:57:32Z</time>
      </trkpt>
      <trkpt lat="45.87899" lon="6.41756">
        <ele>1344</ele>
        <time>2014-08-20T09:57:42Z</time>
      </trkpt>
      <trkpt lat="45.87785" lon="6.41845">
        <ele>1338</ele>
        <time>2014-08-20T09:57:52Z</time>
      </trkpt>
      <trkpt lat="45.87612" lon="6.41859">
        <ele>1334</ele>
        <time>2014-08-20T09:57:59Z</time>
      </trkpt>
      <trkpt lat="45.87543" lon="6.4188">
        <ele>1334</ele>
        <time>2014-08-20T09:58:11Z</time>
      </trkpt>
      <trkpt lat="45.87546" lon="6.41941">
        <ele>1334</ele>
        <time>2014-08-20T09:58:21Z</time>
      </trkpt>
      <trkpt lat="45.87577" lon="6.41962">
        <ele>1334</ele>
        <time>2014-08-20T09:58:34Z</time>
      </trkpt>
      <trkpt lat="45.87603" lon="6.41986">
        <ele>1330</ele>
        <time>2014-08-20T09:58:41Z</time>
      </trkpt>
      <trkpt lat="45.87605" lon="6.41987">
        <ele>1330</ele>
        <time>2014-08-20T09:58:50Z</time>
      </trkpt>
      <trkpt lat="45.87605" lon="6.41987">
        <ele>1330</ele>
        <time>2014-08-20T09:59:00Z</time>
      </trkpt>
      <trkpt lat="45.87605" lon="6.41987">
        <ele>1330</ele>
        <time>2014-08-20T09:59:11Z</time>
      </trkpt>
      <trkpt lat="45.87604" lon="6.41987">
        <ele>1330</ele>
        <time>2014-08-20T09:59:20Z</time>
      </trkpt>
      <trkpt lat="45.87605" lon="6.41988">
        <ele>1330</ele>
        <time>2014-08-20T09:59:30Z</time>
      </trkpt>
      <trkpt lat="45.87605" lon="6.41988">
        <ele>1330</ele>
        <time>2014-08-20T09:59:41Z</time>
      </trkpt>
      <trkpt lat="45.87608" lon="6.4199">
        <ele>1330</ele>
        <time>2014-08-20T09:59:53Z</time>
      </trkpt>
      <trkpt lat="45.87608" lon="6.4199">
        <ele>1330</ele>
        <time>2014-08-20T10:00:03Z</time>
      </trkpt>
      <trkpt lat="45.87629" lon="6.42005">
        <ele>1328</ele>
        <time>2014-08-20T10:00:11Z</time>
      </trkpt>
      <trkpt lat="45.87733" lon="6.42068">
        <ele>1320</ele>
        <time>2014-08-20T10:00:23Z</time>
      </trkpt>
      <trkpt lat="45.87933" lon="6.42242">
        <ele>1294</ele>
        <time>2014-08-20T10:00:48Z</time>
      </trkpt>
      <trkpt lat="45.8806" lon="6.42447">
        <ele>1268</ele>
        <time>2014-08-20T10:01:05Z</time>
      </trkpt>
      <trkpt lat="45.8806" lon="6.42447">
        <ele>1254</ele>
        <time>2014-08-20T10:01:22Z</time>
      </trkpt>
      <trkpt lat="45.8806" lon="6.42447">
        <ele>1254</ele>
        <time>2014-08-20T10:01:31Z</time>
      </trkpt>
      <trkpt lat="45.8834" lon="6.42831">
        <ele>1224</ele>
        <time>2014-08-20T10:01:47Z</time>
      </trkpt>
      <trkpt lat="45.88367" lon="6.43063">
        <ele>1214</ele>
        <time>2014-08-20T10:02:02Z</time>
      </trkpt>
      <trkpt lat="45.88367" lon="6.43063">
        <ele>1214</ele>
        <time>2014-08-20T10:02:14Z</time>
      </trkpt>
      <trkpt lat="45.88253" lon="6.43531">
        <ele>1200</ele>
        <time>2014-08-20T10:02:23Z</time>
      </trkpt>
      <trkpt lat="45.88253" lon="6.43531">
        <ele>1192</ele>
        <time>2014-08-20T10:02:31Z</time>
      </trkpt>
      <trkpt lat="45.88298" lon="6.43689">
        <ele>1192</ele>
        <time>2014-08-20T10:02:45Z</time>
      </trkpt>
      <trkpt lat="45.88394" lon="6.43516">
        <ele>1188</ele>
        <time>2014-08-20T10:02:52Z</time>
      </trkpt>
      <trkpt lat="45.88394" lon="6.43516">
        <ele>1182</ele>
        <time>2014-08-20T10:03:05Z</time>
      </trkpt>
      <trkpt lat="45.88493" lon="6.43387">
        <ele>1182</ele>
        <time>2014-08-20T10:03:25Z</time>
      </trkpt>
      <trkpt lat="45.886" lon="6.43284">
        <ele>1182</ele>
        <time>2014-08-20T10:03:44Z</time>
      </trkpt>
      <trkpt lat="45.886" lon="6.43284">
        <ele>1182</ele>
        <time>2014-08-20T10:04:03Z</time>
      </trkpt>
      <trkpt lat="45.88626" lon="6.43337">
        <ele>1188</ele>
        <time>2014-08-20T10:04:21Z</time>
      </trkpt>
      <trkpt lat="45.88584" lon="6.43366">
        <ele>1188</ele>
        <time>2014-08-20T10:04:31Z</time>
      </trkpt>
      <trkpt lat="45.88584" lon="6.43366">
        <ele>1190</ele>
        <time>2014-08-20T10:04:48Z</time>
      </trkpt>
      <trkpt lat="45.88539" lon="6.43406">
        <ele>1194</ele>
        <time>2014-08-20T10:04:51Z</time>
      </trkpt>
      <trkpt lat="45.88539" lon="6.43406">
        <ele>1194</ele>
        <time>2014-08-20T10:05:01Z</time>
      </trkpt>
      <trkpt lat="45.88499" lon="6.4345">
        <ele>1198</ele>
        <time>2014-08-20T10:05:18Z</time>
      </trkpt>
      <trkpt lat="45.88473" lon="6.43495">
        <ele>1202</ele>
        <time>2014-08-20T10:05:31Z</time>
      </trkpt>
      <trkpt lat="45.88407" lon="6.43591">
        <ele>1202</ele>
        <time>2014-08-20T10:05:42Z</time>
      </trkpt>
      <trkpt lat="45.88407" lon="6.43591">
        <ele>1206</ele>
        <time>2014-08-20T10:06:08Z</time>
      </trkpt>
      <trkpt lat="45.88385" lon="6.43653">
        <ele>1210</ele>
        <time>2014-08-20T10:06:12Z</time>
      </trkpt>
      <trkpt lat="45.88372" lon="6.43706">
        <ele>1210</ele>
        <time>2014-08-20T10:06:28Z</time>
      </trkpt>
      <trkpt lat="45.88356" lon="6.43771">
        <ele>1214</ele>
        <time>2014-08-20T10:06:36Z</time>
      </trkpt>
      <trkpt lat="45.88356" lon="6.43771">
        <ele>1214</ele>
        <time>2014-08-20T10:06:43Z</time>
      </trkpt>
      <trkpt lat="45.88338" lon="6.43841">
        <ele>1214</ele>
        <time>2014-08-20T10:06:59Z</time>
      </trkpt>
      <trkpt lat="45.88306" lon="6.43903">
        <ele>1218</ele>
        <time>2014-08-20T10:07:07Z</time>
      </trkpt>
      <trkpt lat="45.88306" lon="6.43903">
        <ele>1218</ele>
        <time>2014-08-20T10:07:14Z</time>
      </trkpt>
      <trkpt lat="45.88283" lon="6.43975">
        <ele>1224</ele>
        <time>2014-08-20T10:07:29Z</time>
      </trkpt>
      <trkpt lat="45.88283" lon="6.43975">
        <ele>1224</ele>
        <time>2014-08-20T10:07:37Z</time>
      </trkpt>
      <trkpt lat="45.88271" lon="6.44046">
        <ele>1224</ele>
        <time>2014-08-20T10:07:45Z</time>
      </trkpt>
      <trkpt lat="45.88271" lon="6.44046">
        <ele>1228</ele>
        <time>2014-08-20T10:07:53Z</time>
      </trkpt>
      <trkpt lat="45.88248" lon="6.44096">
        <ele>1232</ele>
        <time>2014-08-20T10:08:08Z</time>
      </trkpt>
      <trkpt lat="45.88237" lon="6.44153">
        <ele>1232</ele>
        <time>2014-08-20T10:08:16Z</time>
      </trkpt>
      <trkpt lat="45.88237" lon="6.44153">
        <ele>1232</ele>
        <time>2014-08-20T10:08:23Z</time>
      </trkpt>
      <trkpt lat="45.88216" lon="6.442">
        <ele>1236</ele>
        <time>2014-08-20T10:08:39Z</time>
      </trkpt>
      <trkpt lat="45.88179" lon="6.44237">
        <ele>1240</ele>
        <time>2014-08-20T10:08:47Z</time>
      </trkpt>
      <trkpt lat="45.88179" lon="6.44237">
        <ele>1240</ele>
        <time>2014-08-20T10:08:55Z</time>
      </trkpt>
      <trkpt lat="45.88149" lon="6.44266">
        <ele>1246</ele>
        <time>2014-08-20T10:09:09Z</time>
      </trkpt>
      <trkpt lat="45.8812" lon="6.44308">
        <ele>1246</ele>
        <time>2014-08-20T10:09:16Z</time>
      </trkpt>
      <trkpt lat="45.8812" lon="6.44308">
        <ele>1246</ele>
        <time>2014-08-20T10:09:24Z</time>
      </trkpt>
      <trkpt lat="45.88078" lon="6.44333">
        <ele>1250</ele>
        <time>2014-08-20T10:09:38Z</time>
      </trkpt>
      <trkpt lat="45.88049" lon="6.44375">
        <ele>1250</ele>
        <time>2014-08-20T10:09:46Z</time>
      </trkpt>
      <trkpt lat="45.88049" lon="6.44375">
        <ele>1250</ele>
        <time>2014-08-20T10:09:54Z</time>
      </trkpt>
      <trkpt lat="45.88023" lon="6.44419">
        <ele>1256</ele>
        <time>2014-08-20T10:10:08Z</time>
      </trkpt>
      <trkpt lat="45.88023" lon="6.44419">
        <ele>1256</ele>
        <time>2014-08-20T10:10:16Z</time>
      </trkpt>
      <trkpt lat="45.88039" lon="6.44461">
        <ele>1260</ele>
        <time>2014-08-20T10:10:31Z</time>
      </trkpt>
      <trkpt lat="45.88087" lon="6.44429">
        <ele>1260</ele>
        <time>2014-08-20T10:10:38Z</time>
      </trkpt>
      <trkpt lat="45.88087" lon="6.44429">
        <ele>1260</ele>
        <time>2014-08-20T10:10:46Z</time>
      </trkpt>
      <trkpt lat="45.8813" lon="6.44394">
        <ele>1264</ele>
        <time>2014-08-20T10:11:01Z</time>
      </trkpt>
      <trkpt lat="45.8813" lon="6.44394">
        <ele>1264</ele>
        <time>2014-08-20T10:11:09Z</time>
      </trkpt>
      <trkpt lat="45.88176" lon="6.44377">
        <ele>1270</ele>
        <time>2014-08-20T10:11:17Z</time>
      </trkpt>
      <trkpt lat="45.88158" lon="6.44439">
        <ele>1270</ele>
        <time>2014-08-20T10:11:25Z</time>
      </trkpt>
      <trkpt lat="45.88132" lon="6.44492">
        <ele>1274</ele>
        <time>2014-08-20T10:11:40Z</time>
      </trkpt>
      <trkpt lat="45.88132" lon="6.44492">
        <ele>1274</ele>
        <time>2014-08-20T10:11:48Z</time>
      </trkpt>
      <trkpt lat="45.88113" lon="6.44549">
        <ele>1278</ele>
        <time>2014-08-20T10:11:56Z</time>
      </trkpt>
      <trkpt lat="45.88088" lon="6.44599">
        <ele>1278</ele>
        <time>2014-08-20T10:12:11Z</time>
      </trkpt>
      <trkpt lat="45.88088" lon="6.44599">
        <ele>1282</ele>
        <time>2014-08-20T10:12:19Z</time>
      </trkpt>
      <trkpt lat="45.88088" lon="6.44599">
        <ele>1282</ele>
        <time>2014-08-20T10:12:27Z</time>
      </trkpt>
      <trkpt lat="45.8805" lon="6.44639">
        <ele>1288</ele>
        <time>2014-08-20T10:12:42Z</time>
      </trkpt>
      <trkpt lat="45.88016" lon="6.44678">
        <ele>1288</ele>
        <time>2014-08-20T10:12:50Z</time>
      </trkpt>
      <trkpt lat="45.88016" lon="6.44678">
        <ele>1292</ele>
        <time>2014-08-20T10:12:58Z</time>
      </trkpt>
      <trkpt lat="45.87993" lon="6.44724">
        <ele>1292</ele>
        <time>2014-08-20T10:13:06Z</time>
      </trkpt>
      <trkpt lat="45.87976" lon="6.44789">
        <ele>1296</ele>
        <time>2014-08-20T10:13:21Z</time>
      </trkpt>
      <trkpt lat="45.87976" lon="6.44789">
        <ele>1296</ele>
        <time>2014-08-20T10:13:29Z</time>
      </trkpt>
      <trkpt lat="45.8794" lon="6.44832">
        <ele>1300</ele>
        <time>2014-08-20T10:13:37Z</time>
      </trkpt>
      <trkpt lat="45.87902" lon="6.4486">
        <ele>1300</ele>
        <time>2014-08-20T10:13:53Z</time>
      </trkpt>
      <trkpt lat="45.87902" lon="6.4486">
        <ele>1304</ele>
        <time>2014-08-20T10:14:01Z</time>
      </trkpt>
      <trkpt lat="45.8787" lon="6.44882">
        <ele>1304</ele>
        <time>2014-08-20T10:14:09Z</time>
      </trkpt>
      <trkpt lat="45.87836" lon="6.44907">
        <ele>1310</ele>
        <time>2014-08-20T10:14:16Z</time>
      </trkpt>
      <trkpt lat="45.87836" lon="6.44907">
        <ele>1310</ele>
        <time>2014-08-20T10:14:31Z</time>
      </trkpt>
      <trkpt lat="45.87805" lon="6.44928">
        <ele>1310</ele>
        <time>2014-08-20T10:14:39Z</time>
      </trkpt>
      <trkpt lat="45.87805" lon="6.44928">
        <ele>1314</ele>
        <time>2014-08-20T10:14:47Z</time>
      </trkpt>
      <trkpt lat="45.87774" lon="6.44962">
        <ele>1318</ele>
        <time>2014-08-20T10:15:02Z</time>
      </trkpt>
      <trkpt lat="45.87745" lon="6.44999">
        <ele>1318</ele>
        <time>2014-08-20T10:15:10Z</time>
      </trkpt>
      <trkpt lat="45.87745" lon="6.44999">
        <ele>1318</ele>
        <time>2014-08-20T10:15:17Z</time>
      </trkpt>
      <trkpt lat="45.87713" lon="6.45041">
        <ele>1322</ele>
        <time>2014-08-20T10:15:32Z</time>
      </trkpt>
      <trkpt lat="45.87713" lon="6.45041">
        <ele>1322</ele>
        <time>2014-08-20T10:15:41Z</time>
      </trkpt>
      <trkpt lat="45.87688" lon="6.45078">
        <ele>1326</ele>
        <time>2014-08-20T10:15:49Z</time>
      </trkpt>
      <trkpt lat="45.87688" lon="6.45114">
        <ele>1326</ele>
        <time>2014-08-20T10:16:04Z</time>
      </trkpt>
      <trkpt lat="45.87688" lon="6.45114">
        <ele>1330</ele>
        <time>2014-08-20T10:16:11Z</time>
      </trkpt>
      <trkpt lat="45.87718" lon="6.45111">
        <ele>1326</ele>
        <time>2014-08-20T10:16:20Z</time>
      </trkpt>
      <trkpt lat="45.87718" lon="6.45111">
        <ele>1334</ele>
        <time>2014-08-20T10:16:28Z</time>
      </trkpt>
      <trkpt lat="45.87753" lon="6.4509">
        <ele>1334</ele>
        <time>2014-08-20T10:16:43Z</time>
      </trkpt>
      <trkpt lat="45.87802" lon="6.45093">
        <ele>1338</ele>
        <time>2014-08-20T10:16:51Z</time>
      </trkpt>
      <trkpt lat="45.87802" lon="6.45093">
        <ele>1338</ele>
        <time>2014-08-20T10:16:59Z</time>
      </trkpt>
      <trkpt lat="45.87848" lon="6.4509">
        <ele>1342</ele>
        <time>2014-08-20T10:17:14Z</time>
      </trkpt>
      <trkpt lat="45.8789" lon="6.45079">
        <ele>1342</ele>
        <time>2014-08-20T10:17:22Z</time>
      </trkpt>
      <trkpt lat="45.8789" lon="6.45079">
        <ele>1342</ele>
        <time>2014-08-20T10:17:31Z</time>
      </trkpt>
      <trkpt lat="45.87886" lon="6.45129">
        <ele>1346</ele>
        <time>2014-08-20T10:17:39Z</time>
      </trkpt>
      <trkpt lat="45.87886" lon="6.45129">
        <ele>1346</ele>
        <time>2014-08-20T10:17:54Z</time>
      </trkpt>
      <trkpt lat="45.87851" lon="6.45174">
        <ele>1350</ele>
        <time>2014-08-20T10:18:02Z</time>
      </trkpt>
      <trkpt lat="45.87851" lon="6.45174">
        <ele>1350</ele>
        <time>2014-08-20T10:18:10Z</time>
      </trkpt>
      <trkpt lat="45.87809" lon="6.45203">
        <ele>1354</ele>
        <time>2014-08-20T10:18:25Z</time>
      </trkpt>
      <trkpt lat="45.87766" lon="6.45229">
        <ele>1354</ele>
        <time>2014-08-20T10:18:33Z</time>
      </trkpt>
      <trkpt lat="45.87766" lon="6.45229">
        <ele>1358</ele>
        <time>2014-08-20T10:18:41Z</time>
      </trkpt>
      <trkpt lat="45.87724" lon="6.45255">
        <ele>1358</ele>
        <time>2014-08-20T10:18:49Z</time>
      </trkpt>
      <trkpt lat="45.87682" lon="6.45274">
        <ele>1364</ele>
        <time>2014-08-20T10:19:06Z</time>
      </trkpt>
      <trkpt lat="45.87682" lon="6.45274">
        <ele>1364</ele>
        <time>2014-08-20T10:19:13Z</time>
      </trkpt>
      <trkpt lat="45.87642" lon="6.45308">
        <ele>1368</ele>
        <time>2014-08-20T10:19:22Z</time>
      </trkpt>
      <trkpt lat="45.87642" lon="6.45308">
        <ele>1368</ele>
        <time>2014-08-20T10:19:30Z</time>
      </trkpt>
      <trkpt lat="45.87603" lon="6.45345">
        <ele>1374</ele>
        <time>2014-08-20T10:19:46Z</time>
      </trkpt>
      <trkpt lat="45.87566" lon="6.45384">
        <ele>1374</ele>
        <time>2014-08-20T10:19:54Z</time>
      </trkpt>
      <trkpt lat="45.87566" lon="6.45384">
        <ele>1374</ele>
        <time>2014-08-20T10:20:02Z</time>
      </trkpt>
      <trkpt lat="45.87527" lon="6.45414">
        <ele>1378</ele>
        <time>2014-08-20T10:20:10Z</time>
      </trkpt>
      <trkpt lat="45.87481" lon="6.4544">
        <ele>1378</ele>
        <time>2014-08-20T10:20:25Z</time>
      </trkpt>
      <trkpt lat="45.87481" lon="6.4544">
        <ele>1382</ele>
        <time>2014-08-20T10:20:33Z</time>
      </trkpt>
      <trkpt lat="45.87434" lon="6.45462">
        <ele>1382</ele>
        <time>2014-08-20T10:20:41Z</time>
      </trkpt>
      <trkpt lat="45.87434" lon="6.45462">
        <ele>1386</ele>
        <time>2014-08-20T10:20:49Z</time>
      </trkpt>
      <trkpt lat="45.8738" lon="6.45488">
        <ele>1390</ele>
        <time>2014-08-20T10:21:06Z</time>
      </trkpt>
      <trkpt lat="45.8738" lon="6.45488">
        <ele>1390</ele>
        <time>2014-08-20T10:21:13Z</time>
      </trkpt>
      <trkpt lat="45.87377" lon="6.45535">
        <ele>1396</ele>
        <time>2014-08-20T10:21:22Z</time>
      </trkpt>
      <trkpt lat="45.87377" lon="6.45535">
        <ele>1396</ele>
        <time>2014-08-20T10:21:30Z</time>
      </trkpt>
      <trkpt lat="45.87484" lon="6.45506">
        <ele>1400</ele>
        <time>2014-08-20T10:21:46Z</time>
      </trkpt>
      <trkpt lat="45.87559" lon="6.45483">
        <ele>1400</ele>
        <time>2014-08-20T10:21:54Z</time>
      </trkpt>
      <trkpt lat="45.87559" lon="6.45483">
        <ele>1400</ele>
        <time>2014-08-20T10:22:02Z</time>
      </trkpt>
      <trkpt lat="45.87611" lon="6.45483">
        <ele>1406</ele>
        <time>2014-08-20T10:22:10Z</time>
      </trkpt>
      <trkpt lat="45.87564" lon="6.45541">
        <ele>1412</ele>
        <time>2014-08-20T10:22:26Z</time>
      </trkpt>
      <trkpt lat="45.87564" lon="6.45541">
        <ele>1412</ele>
        <time>2014-08-20T10:22:34Z</time>
      </trkpt>
      <trkpt lat="45.87502" lon="6.45594">
        <ele>1412</ele>
        <time>2014-08-20T10:22:42Z</time>
      </trkpt>
      <trkpt lat="45.87502" lon="6.45594">
        <ele>1416</ele>
        <time>2014-08-20T10:22:51Z</time>
      </trkpt>
      <trkpt lat="45.87452" lon="6.45661">
        <ele>1422</ele>
        <time>2014-08-20T10:23:07Z</time>
      </trkpt>
      <trkpt lat="45.87419" lon="6.45744">
        <ele>1422</ele>
        <time>2014-08-20T10:23:15Z</time>
      </trkpt>
      <trkpt lat="45.87419" lon="6.45744">
        <ele>1426</ele>
        <time>2014-08-20T10:23:23Z</time>
      </trkpt>
      <trkpt lat="45.87413" lon="6.45828">
        <ele>1426</ele>
        <time>2014-08-20T10:23:31Z</time>
      </trkpt>
      <trkpt lat="45.87411" lon="6.45904">
        <ele>1430</ele>
        <time>2014-08-20T10:23:47Z</time>
      </trkpt>
      <trkpt lat="45.87411" lon="6.45904">
        <ele>1430</ele>
        <time>2014-08-20T10:23:55Z</time>
      </trkpt>
      <trkpt lat="45.87408" lon="6.46005">
        <ele>1430</ele>
        <time>2014-08-20T10:24:04Z</time>
      </trkpt>
      <trkpt lat="45.87408" lon="6.46005">
        <ele>1430</ele>
        <time>2014-08-20T10:24:12Z</time>
      </trkpt>
      <trkpt lat="45.87392" lon="6.46126">
        <ele>1436</ele>
        <time>2014-08-20T10:24:28Z</time>
      </trkpt>
      <trkpt lat="45.87338" lon="6.46249">
        <ele>1436</ele>
        <time>2014-08-20T10:24:38Z</time>
      </trkpt>
      <trkpt lat="45.87338" lon="6.46249">
        <ele>1440</ele>
        <time>2014-08-20T10:24:47Z</time>
      </trkpt>
      <trkpt lat="45.8729" lon="6.4635">
        <ele>1440</ele>
        <time>2014-08-20T10:24:56Z</time>
      </trkpt>
      <trkpt lat="45.8729" lon="6.4635">
        <ele>1440</ele>
        <time>2014-08-20T10:25:05Z</time>
      </trkpt>
      <trkpt lat="45.87249" lon="6.46439">
        <ele>1440</ele>
        <time>2014-08-20T10:25:13Z</time>
      </trkpt>
      <trkpt lat="45.87226" lon="6.46489">
        <ele>1440</ele>
        <time>2014-08-20T10:25:22Z</time>
      </trkpt>
      <trkpt lat="45.87224" lon="6.46497">
        <ele>1444</ele>
        <time>2014-08-20T10:25:38Z</time>
      </trkpt>
      <trkpt lat="45.87224" lon="6.46497">
        <ele>1444</ele>
        <time>2014-08-20T10:25:47Z</time>
      </trkpt>
      <trkpt lat="45.87224" lon="6.46496">
        <ele>1444</ele>
        <time>2014-08-20T10:25:56Z</time>
      </trkpt>
      <trkpt lat="45.87224" lon="6.46496">
        <ele>1444</ele>
        <time>2014-08-20T10:26:05Z</time>
      </trkpt>
      <trkpt lat="45.87225" lon="6.46494">
        <ele>1444</ele>
        <time>2014-08-20T10:26:14Z</time>
      </trkpt>
      <trkpt lat="45.87225" lon="6.46494">
        <ele>1444</ele>
        <time>2014-08-20T10:26:23Z</time>
      </trkpt>
      <trkpt lat="45.87226" lon="6.46489">
        <ele>1444</ele>
        <time>2014-08-20T10:26:40Z</time>
      </trkpt>
      <trkpt lat="45.87226" lon="6.46489">
        <ele>1444</ele>
        <time>2014-08-20T10:26:49Z</time>
      </trkpt>
      <trkpt lat="45.87226" lon="6.46489">
        <ele>1444</ele>
        <time>2014-08-20T10:26:58Z</time>
      </trkpt>
      <trkpt lat="45.87225" lon="6.46492">
        <ele>1444</ele>
        <time>2014-08-20T10:27:07Z</time>
      </trkpt>
      <trkpt lat="45.87225" lon="6.46492">
        <ele>1442</ele>
        <time>2014-08-20T10:27:15Z</time>
      </trkpt>
      <trkpt lat="45.87225" lon="6.46493">
        <ele>1442</ele>
        <time>2014-08-20T10:27:24Z</time>
      </trkpt>
      <trkpt lat="45.87225" lon="6.46493">
        <ele>1442</ele>
        <time>2014-08-20T10:27:33Z</time>
      </trkpt>
      <trkpt lat="45.87226" lon="6.4649">
        <ele>1442</ele>
        <time>2014-08-20T10:27:50Z</time>
      </trkpt>
      <trkpt lat="45.87227" lon="6.46489">
        <ele>1442</ele>
        <time>2014-08-20T10:27:59Z</time>
      </trkpt>
      <trkpt lat="45.87227" lon="6.46489">
        <ele>1442</ele>
        <time>2014-08-20T10:28:08Z</time>
      </trkpt>
      <trkpt lat="45.87228" lon="6.46487">
        <ele>1442</ele>
        <time>2014-08-20T10:28:16Z</time>
      </trkpt>
      <trkpt lat="45.87228" lon="6.46487">
        <ele>1442</ele>
        <time>2014-08-20T10:28:25Z</time>
      </trkpt>
      <trkpt lat="45.87227" lon="6.46488">
        <ele>1442</ele>
        <time>2014-08-20T10:28:34Z</time>
      </trkpt>
      <trkpt lat="45.87228" lon="6.46487">
        <ele>1442</ele>
        <time>2014-08-20T10:28:51Z</time>
      </trkpt>
      <trkpt lat="45.87228" lon="6.46487">
        <ele>1442</ele>
        <time>2014-08-20T10:28:59Z</time>
      </trkpt>
      <trkpt lat="45.87229" lon="6.46485">
        <ele>1442</ele>
        <time>2014-08-20T10:29:08Z</time>
      </trkpt>
      <trkpt lat="45.87229" lon="6.46485">
        <ele>1442</ele>
        <time>2014-08-20T10:29:16Z</time>
      </trkpt>
      <trkpt lat="45.87229" lon="6.46485">
        <ele>1442</ele>
        <time>2014-08-20T10:29:24Z</time>
      </trkpt>
      <trkpt lat="45.87225" lon="6.46493">
        <ele>1442</ele>
        <time>2014-08-20T10:29:41Z</time>
      </trkpt>
      <trkpt lat="45.87225" lon="6.46493">
        <ele>1442</ele>
        <time>2014-08-20T10:29:51Z</time>
      </trkpt>
      <trkpt lat="45.87226" lon="6.4649">
        <ele>1442</ele>
        <time>2014-08-20T10:30:00Z</time>
      </trkpt>
      <trkpt lat="45.87226" lon="6.4649">
        <ele>1442</ele>
        <time>2014-08-20T10:30:09Z</time>
      </trkpt>
      <trkpt lat="45.87226" lon="6.4649">
        <ele>1442</ele>
        <time>2014-08-20T10:30:17Z</time>
      </trkpt>
      <trkpt lat="45.87226" lon="6.46491">
        <ele>1444</ele>
        <time>2014-08-20T10:30:26Z</time>
      </trkpt>
      <trkpt lat="45.87226" lon="6.46491">
        <ele>1444</ele>
        <time>2014-08-20T10:30:35Z</time>
      </trkpt>
      <trkpt lat="45.87226" lon="6.4649">
        <ele>1444</ele>
        <time>2014-08-20T10:30:52Z</time>
      </trkpt>
      <trkpt lat="45.87226" lon="6.4649">
        <ele>1444</ele>
        <time>2014-08-20T10:31:01Z</time>
      </trkpt>
      <trkpt lat="45.87226" lon="6.4649">
        <ele>1444</ele>
        <time>2014-08-20T10:31:10Z</time>
      </trkpt>
      <trkpt lat="45.87225" lon="6.46492">
        <ele>1444</ele>
        <time>2014-08-20T10:31:19Z</time>
      </trkpt>
      <trkpt lat="45.87225" lon="6.46492">
        <ele>1444</ele>
        <time>2014-08-20T10:31:27Z</time>
      </trkpt>
      <trkpt lat="45.87226" lon="6.4649">
        <ele>1444</ele>
        <time>2014-08-20T10:31:37Z</time>
      </trkpt>
      <trkpt lat="45.87226" lon="6.4649">
        <ele>1444</ele>
        <time>2014-08-20T10:31:46Z</time>
      </trkpt>
      <trkpt lat="45.87225" lon="6.46493">
        <ele>1444</ele>
        <time>2014-08-20T10:32:03Z</time>
      </trkpt>
      <trkpt lat="45.87225" lon="6.46493">
        <ele>1444</ele>
        <time>2014-08-20T10:32:12Z</time>
      </trkpt>
      <trkpt lat="45.87225" lon="6.46493">
        <ele>1444</ele>
        <time>2014-08-20T10:32:21Z</time>
      </trkpt>
      <trkpt lat="45.87225" lon="6.46493">
        <ele>1444</ele>
        <time>2014-08-20T10:32:30Z</time>
      </trkpt>
      <trkpt lat="45.87235" lon="6.46472">
        <ele>1444</ele>
        <time>2014-08-20T10:32:39Z</time>
      </trkpt>
      <trkpt lat="45.87235" lon="6.46472">
        <ele>1442</ele>
        <time>2014-08-20T10:32:48Z</time>
      </trkpt>
      <trkpt lat="45.8726" lon="6.46415">
        <ele>1442</ele>
        <time>2014-08-20T10:32:57Z</time>
      </trkpt>
      <trkpt lat="45.8726" lon="6.46415">
        <ele>1442</ele>
        <time>2014-08-20T10:33:06Z</time>
      </trkpt>
      <trkpt lat="45.87301" lon="6.46325">
        <ele>1442</ele>
        <time>2014-08-20T10:33:23Z</time>
      </trkpt>
      <trkpt lat="45.8735" lon="6.46225">
        <ele>1438</ele>
        <time>2014-08-20T10:33:33Z</time>
      </trkpt>
      <trkpt lat="45.8735" lon="6.46225">
        <ele>1438</ele>
        <time>2014-08-20T10:33:42Z</time>
      </trkpt>
      <trkpt lat="45.87403" lon="6.46086">
        <ele>1434</ele>
        <time>2014-08-20T10:33:51Z</time>
      </trkpt>
      <trkpt lat="45.87403" lon="6.46086">
        <ele>1434</ele>
        <time>2014-08-20T10:34:00Z</time>
      </trkpt>
      <trkpt lat="45.8741" lon="6.45943">
        <ele>1430</ele>
        <time>2014-08-20T10:34:09Z</time>
      </trkpt>
      <trkpt lat="45.87414" lon="6.4578">
        <ele>1426</ele>
        <time>2014-08-20T10:34:18Z</time>
      </trkpt>
      <trkpt lat="45.87414" lon="6.4578">
        <ele>1422</ele>
        <time>2014-08-20T10:34:27Z</time>
      </trkpt>
      <trkpt lat="45.87323" lon="6.43964">
        <ele>1232</ele>
        <time>2014-08-20T10:38:46Z</time>
      </trkpt>
      <trkpt lat="45.87478" lon="6.43444">
        <ele>1218</ele>
        <time>2014-08-20T10:39:11Z</time>
      </trkpt>
      <trkpt lat="45.87478" lon="6.43444">
        <ele>1218</ele>
        <time>2014-08-20T10:39:20Z</time>
      </trkpt>
      <trkpt lat="45.87478" lon="6.43444">
        <ele>1190</ele>
        <time>2014-08-20T10:39:37Z</time>
      </trkpt>
      <trkpt lat="45.87478" lon="6.43444">
        <ele>1184</ele>
        <time>2014-08-20T10:39:46Z</time>
      </trkpt>
      <trkpt lat="45.87478" lon="6.43444">
        <ele>1180</ele>
        <time>2014-08-20T10:39:55Z</time>
      </trkpt>
      <trkpt lat="45.88882" lon="6.43078">
        <ele>1170</ele>
        <time>2014-08-20T10:40:20Z</time>
      </trkpt>
      <trkpt lat="45.89087" lon="6.42987">
        <ele>1152</ele>
        <time>2014-08-20T10:40:37Z</time>
      </trkpt>
      <trkpt lat="45.89087" lon="6.42987">
        <ele>1144</ele>
        <time>2014-08-20T10:40:46Z</time>
      </trkpt>
      <trkpt lat="45.89304" lon="6.42947">
        <ele>1136</ele>
        <time>2014-08-20T10:40:56Z</time>
      </trkpt>
      <trkpt lat="45.89304" lon="6.42947">
        <ele>1130</ele>
        <time>2014-08-20T10:41:05Z</time>
      </trkpt>
      <trkpt lat="45.89533" lon="6.42928">
        <ele>1130</ele>
        <time>2014-08-20T10:41:13Z</time>
      </trkpt>
      <trkpt lat="45.89533" lon="6.42928">
        <ele>1120</ele>
        <time>2014-08-20T10:41:23Z</time>
      </trkpt>
      <trkpt lat="45.89736" lon="6.42882">
        <ele>1110</ele>
        <time>2014-08-20T10:41:32Z</time>
      </trkpt>
      <trkpt lat="45.89917" lon="6.42763">
        <ele>1104</ele>
        <time>2014-08-20T10:41:41Z</time>
      </trkpt>
      <trkpt lat="45.89985" lon="6.42533">
        <ele>1096</ele>
        <time>2014-08-20T10:41:58Z</time>
      </trkpt>
      <trkpt lat="45.89985" lon="6.42533">
        <ele>1080</ele>
        <time>2014-08-20T10:42:07Z</time>
      </trkpt>
      <trkpt lat="45.90119" lon="6.42536">
        <ele>1080</ele>
        <time>2014-08-20T10:42:16Z</time>
      </trkpt>
      <trkpt lat="45.90119" lon="6.42536">
        <ele>1068</ele>
        <time>2014-08-20T10:42:25Z</time>
      </trkpt>
      <trkpt lat="45.903" lon="6.42605">
        <ele>1062</ele>
        <time>2014-08-20T10:42:34Z</time>
      </trkpt>
      <trkpt lat="45.903" lon="6.42605">
        <ele>1056</ele>
        <time>2014-08-20T10:42:44Z</time>
      </trkpt>
      <trkpt lat="45.90442" lon="6.42811">
        <ele>1048</ele>
        <time>2014-08-20T10:42:53Z</time>
      </trkpt>
      <trkpt lat="45.90442" lon="6.42811">
        <ele>1040</ele>
        <time>2014-08-20T10:43:02Z</time>
      </trkpt>
      <trkpt lat="45.90612" lon="6.43061">
        <ele>1036</ele>
        <time>2014-08-20T10:43:19Z</time>
      </trkpt>
      <trkpt lat="45.90612" lon="6.43061">
        <ele>1036</ele>
        <time>2014-08-20T10:43:28Z</time>
      </trkpt>
      <trkpt lat="45.90656" lon="6.42971">
        <ele>1032</ele>
        <time>2014-08-20T10:43:37Z</time>
      </trkpt>
      <trkpt lat="45.90656" lon="6.42971">
        <ele>1032</ele>
        <time>2014-08-20T10:43:46Z</time>
      </trkpt>
      <trkpt lat="45.90646" lon="6.42814">
        <ele>1032</ele>
        <time>2014-08-20T10:43:55Z</time>
      </trkpt>
      <trkpt lat="45.90646" lon="6.42814">
        <ele>1022</ele>
        <time>2014-08-20T10:44:04Z</time>
      </trkpt>
      <trkpt lat="45.90626" lon="6.42703">
        <ele>1022</ele>
        <time>2014-08-20T10:44:13Z</time>
      </trkpt>
      <trkpt lat="45.90626" lon="6.42703">
        <ele>1022</ele>
        <time>2014-08-20T10:44:22Z</time>
      </trkpt>
      <trkpt lat="45.90604" lon="6.42641">
        <ele>1022</ele>
        <time>2014-08-20T10:44:32Z</time>
      </trkpt>
      <trkpt lat="45.90607" lon="6.42663">
        <ele>1022</ele>
        <time>2014-08-20T10:44:50Z</time>
      </trkpt>
      <trkpt lat="45.90612" lon="6.42637">
        <ele>1022</ele>
        <time>2014-08-20T10:44:59Z</time>
      </trkpt>
      <trkpt lat="45.90612" lon="6.42637">
        <ele>1014</ele>
        <time>2014-08-20T10:45:08Z</time>
      </trkpt>
      <trkpt lat="45.90611" lon="6.42516">
        <ele>1010</ele>
        <time>2014-08-20T10:45:17Z</time>
      </trkpt>
      <trkpt lat="45.90611" lon="6.42516">
        <ele>1004</ele>
        <time>2014-08-20T10:45:26Z</time>
      </trkpt>
      <trkpt lat="45.90614" lon="6.42386">
        <ele>1004</ele>
        <time>2014-08-20T10:45:35Z</time>
      </trkpt>
      <trkpt lat="45.90617" lon="6.42326">
        <ele>1000</ele>
        <time>2014-08-20T10:45:45Z</time>
      </trkpt>
      <trkpt lat="45.90617" lon="6.42326">
        <ele>1000</ele>
        <time>2014-08-20T10:45:54Z</time>
      </trkpt>
      <trkpt lat="45.90622" lon="6.42206">
        <ele>1000</ele>
        <time>2014-08-20T10:46:03Z</time>
      </trkpt>
      <trkpt lat="45.9065" lon="6.42109">
        <ele>1000</ele>
        <time>2014-08-20T10:46:13Z</time>
      </trkpt>
      <trkpt lat="45.90713" lon="6.42017">
        <ele>1000</ele>
        <time>2014-08-20T10:46:30Z</time>
      </trkpt>
      <trkpt lat="45.90713" lon="6.42017">
        <ele>1000</ele>
        <time>2014-08-20T10:46:40Z</time>
      </trkpt>
      <trkpt lat="45.90784" lon="6.41938">
        <ele>1000</ele>
        <time>2014-08-20T10:46:49Z</time>
      </trkpt>
      <trkpt lat="45.90784" lon="6.41938">
        <ele>996</ele>
        <time>2014-08-20T10:46:58Z</time>
      </trkpt>
      <trkpt lat="45.90881" lon="6.41908">
        <ele>996</ele>
        <time>2014-08-20T10:47:07Z</time>
      </trkpt>
      <trkpt lat="45.90881" lon="6.41908">
        <ele>996</ele>
        <time>2014-08-20T10:47:16Z</time>
      </trkpt>
      <trkpt lat="45.90881" lon="6.41908">
        <ele>990</ele>
        <time>2014-08-20T10:47:25Z</time>
      </trkpt>
      <trkpt lat="45.90881" lon="6.41908">
        <ele>990</ele>
        <time>2014-08-20T10:47:34Z</time>
      </trkpt>
      <trkpt lat="45.90881" lon="6.41908">
        <ele>990</ele>
        <time>2014-08-20T10:47:43Z</time>
      </trkpt>
      <trkpt lat="45.912" lon="6.4192">
        <ele>990</ele>
        <time>2014-08-20T10:47:54Z</time>
      </trkpt>
      <trkpt lat="45.91304" lon="6.41832">
        <ele>986</ele>
        <time>2014-08-20T10:48:12Z</time>
      </trkpt>
      <trkpt lat="45.9143" lon="6.41836">
        <ele>982</ele>
        <time>2014-08-20T10:48:21Z</time>
      </trkpt>
      <trkpt lat="45.9143" lon="6.41836">
        <ele>976</ele>
        <time>2014-08-20T10:48:31Z</time>
      </trkpt>
      <trkpt lat="45.9156" lon="6.41931">
        <ele>972</ele>
        <time>2014-08-20T10:48:41Z</time>
      </trkpt>
      <trkpt lat="45.91703" lon="6.41912">
        <ele>966</ele>
        <time>2014-08-20T10:48:51Z</time>
      </trkpt>
      <trkpt lat="45.91703" lon="6.41912">
        <ele>966</ele>
        <time>2014-08-20T10:49:01Z</time>
      </trkpt>
      <trkpt lat="45.91806" lon="6.41736">
        <ele>962</ele>
        <time>2014-08-20T10:49:11Z</time>
      </trkpt>
      <trkpt lat="45.91806" lon="6.41736">
        <ele>962</ele>
        <time>2014-08-20T10:49:20Z</time>
      </trkpt>
      <trkpt lat="45.91898" lon="6.41594">
        <ele>962</ele>
        <time>2014-08-20T10:49:30Z</time>
      </trkpt>
      <trkpt lat="45.92014" lon="6.41491">
        <ele>962</ele>
        <time>2014-08-20T10:49:40Z</time>
      </trkpt>
      <trkpt lat="45.92014" lon="6.41491">
        <ele>950</ele>
        <time>2014-08-20T10:49:50Z</time>
      </trkpt>
      <trkpt lat="45.92133" lon="6.41543">
        <ele>950</ele>
        <time>2014-08-20T10:50:00Z</time>
      </trkpt>
      <trkpt lat="45.92231" lon="6.4144">
        <ele>950</ele>
        <time>2014-08-20T10:50:09Z</time>
      </trkpt>
      <trkpt lat="45.92231" lon="6.4144">
        <ele>950</ele>
        <time>2014-08-20T10:50:18Z</time>
      </trkpt>
      <trkpt lat="45.92231" lon="6.4144">
        <ele>940</ele>
        <time>2014-08-20T10:50:28Z</time>
      </trkpt>
      <trkpt lat="45.92325" lon="6.41292">
        <ele>940</ele>
        <time>2014-08-20T10:50:37Z</time>
      </trkpt>
      <trkpt lat="45.92325" lon="6.41292">
        <ele>928</ele>
        <time>2014-08-20T10:50:47Z</time>
      </trkpt>
      <trkpt lat="45.92325" lon="6.41292">
        <ele>928</ele>
        <time>2014-08-20T10:50:57Z</time>
      </trkpt>
      <trkpt lat="45.92325" lon="6.41292">
        <ele>928</ele>
        <time>2014-08-20T10:51:07Z</time>
      </trkpt>
      <trkpt lat="45.92223" lon="6.40871">
        <ele>928</ele>
        <time>2014-08-20T10:51:17Z</time>
      </trkpt>
      <trkpt lat="45.92223" lon="6.40871">
        <ele>928</ele>
        <time>2014-08-20T10:51:27Z</time>
      </trkpt>
      <trkpt lat="45.92194" lon="6.40722">
        <ele>928</ele>
        <time>2014-08-20T10:51:37Z</time>
      </trkpt>
      <trkpt lat="45.92175" lon="6.4055">
        <ele>920</ele>
        <time>2014-08-20T10:51:47Z</time>
      </trkpt>
      <trkpt lat="45.92151" lon="6.40471">
        <ele>920</ele>
        <time>2014-08-20T10:51:57Z</time>
      </trkpt>
      <trkpt lat="45.92151" lon="6.40471">
        <ele>920</ele>
        <time>2014-08-20T10:52:07Z</time>
      </trkpt>
      <trkpt lat="45.92146" lon="6.40479">
        <ele>916</ele>
        <time>2014-08-20T10:52:16Z</time>
      </trkpt>
      <trkpt lat="45.92146" lon="6.40479">
        <ele>916</ele>
        <time>2014-08-20T10:52:26Z</time>
      </trkpt>
      <trkpt lat="45.92145" lon="6.40481">
        <ele>916</ele>
        <time>2014-08-20T10:52:36Z</time>
      </trkpt>
      <trkpt lat="45.92142" lon="6.40482">
        <ele>916</ele>
        <time>2014-08-20T10:52:54Z</time>
      </trkpt>
      <trkpt lat="45.92138" lon="6.40483">
        <ele>916</ele>
        <time>2014-08-20T10:53:04Z</time>
      </trkpt>
      <trkpt lat="45.92138" lon="6.40483">
        <ele>916</ele>
        <time>2014-08-20T10:53:13Z</time>
      </trkpt>
      <trkpt lat="45.92138" lon="6.40483">
        <ele>916</ele>
        <time>2014-08-20T10:53:23Z</time>
      </trkpt>
      <trkpt lat="45.92138" lon="6.40483">
        <ele>916</ele>
        <time>2014-08-20T10:53:33Z</time>
      </trkpt>
      <trkpt lat="45.92138" lon="6.40483">
        <ele>916</ele>
        <time>2014-08-20T10:53:43Z</time>
      </trkpt>
      <trkpt lat="45.92157" lon="6.40513">
        <ele>920</ele>
        <time>2014-08-20T10:53:53Z</time>
      </trkpt>
      <trkpt lat="45.9216" lon="6.40533">
        <ele>920</ele>
        <time>2014-08-20T10:54:03Z</time>
      </trkpt>
      <trkpt lat="45.9216" lon="6.40533">
        <ele>920</ele>
        <time>2014-08-20T10:54:12Z</time>
      </trkpt>
      <trkpt lat="45.92159" lon="6.40518">
        <ele>920</ele>
        <time>2014-08-20T10:54:22Z</time>
      </trkpt>
      <trkpt lat="45.92159" lon="6.40518">
        <ele>920</ele>
        <time>2014-08-20T10:54:31Z</time>
      </trkpt>
      <trkpt lat="45.92163" lon="6.40496">
        <ele>920</ele>
        <time>2014-08-20T10:54:42Z</time>
      </trkpt>
      <trkpt lat="45.9214" lon="6.40367">
        <ele>920</ele>
        <time>2014-08-20T10:54:52Z</time>
      </trkpt>
      <trkpt lat="45.9214" lon="6.40367">
        <ele>916</ele>
        <time>2014-08-20T10:55:02Z</time>
      </trkpt>
      <trkpt lat="45.92129" lon="6.40178">
        <ele>912</ele>
        <time>2014-08-20T10:55:12Z</time>
      </trkpt>
      <trkpt lat="45.92154" lon="6.39992">
        <ele>912</ele>
        <time>2014-08-20T10:55:21Z</time>
      </trkpt>
      <trkpt lat="45.92154" lon="6.39992">
        <ele>908</ele>
        <time>2014-08-20T10:55:32Z</time>
      </trkpt>
      <trkpt lat="45.92113" lon="6.3978">
        <ele>908</ele>
        <time>2014-08-20T10:55:42Z</time>
      </trkpt>
      <trkpt lat="45.92145" lon="6.39575">
        <ele>904</ele>
        <time>2014-08-20T10:55:52Z</time>
      </trkpt>
      <trkpt lat="45.92145" lon="6.39575">
        <ele>898</ele>
        <time>2014-08-20T10:56:02Z</time>
      </trkpt>
      <trkpt lat="45.92113" lon="6.3935">
        <ele>894</ele>
        <time>2014-08-20T10:56:12Z</time>
      </trkpt>
      <trkpt lat="45.92062" lon="6.39095">
        <ele>888</ele>
        <time>2014-08-20T10:56:22Z</time>
      </trkpt>
      <trkpt lat="45.92062" lon="6.39095">
        <ele>882</ele>
        <time>2014-08-20T10:56:33Z</time>
      </trkpt>
      <trkpt lat="45.92034" lon="6.38851">
        <ele>876</ele>
        <time>2014-08-20T10:56:43Z</time>
      </trkpt>
      <trkpt lat="45.91989" lon="6.38603">
        <ele>868</ele>
        <time>2014-08-20T10:56:53Z</time>
      </trkpt>
      <trkpt lat="45.91989" lon="6.38603">
        <ele>860</ele>
        <time>2014-08-20T10:57:03Z</time>
      </trkpt>
      <trkpt lat="45.91889" lon="6.38387">
        <ele>854</ele>
        <time>2014-08-20T10:57:13Z</time>
      </trkpt>
      <trkpt lat="45.91889" lon="6.38387">
        <ele>846</ele>
        <time>2014-08-20T10:57:23Z</time>
      </trkpt>
      <trkpt lat="45.91808" lon="6.38137">
        <ele>840</ele>
        <time>2014-08-20T10:57:33Z</time>
      </trkpt>
      <trkpt lat="45.91708" lon="6.37914">
        <ele>832</ele>
        <time>2014-08-20T10:57:43Z</time>
      </trkpt>
      <trkpt lat="45.91708" lon="6.37914">
        <ele>824</ele>
        <time>2014-08-20T10:57:53Z</time>
      </trkpt>
      <trkpt lat="45.91581" lon="6.37744">
        <ele>818</ele>
        <time>2014-08-20T10:58:03Z</time>
      </trkpt>
      <trkpt lat="45.91446" lon="6.3756">
        <ele>810</ele>
        <time>2014-08-20T10:58:13Z</time>
      </trkpt>
      <trkpt lat="45.91446" lon="6.3756">
        <ele>802</ele>
        <time>2014-08-20T10:58:23Z</time>
      </trkpt>
      <trkpt lat="45.91325" lon="6.37373">
        <ele>796</ele>
        <time>2014-08-20T10:58:34Z</time>
      </trkpt>
      <trkpt lat="45.9116" lon="6.37263">
        <ele>790</ele>
        <time>2014-08-20T10:58:44Z</time>
      </trkpt>
      <trkpt lat="45.9116" lon="6.37263">
        <ele>780</ele>
        <time>2014-08-20T10:58:54Z</time>
      </trkpt>
      <trkpt lat="45.91034" lon="6.37067">
        <ele>774</ele>
        <time>2014-08-20T10:59:04Z</time>
      </trkpt>
      <trkpt lat="45.90965" lon="6.36824">
        <ele>774</ele>
        <time>2014-08-20T10:59:14Z</time>
      </trkpt>
      <trkpt lat="45.90965" lon="6.36824">
        <ele>774</ele>
        <time>2014-08-20T10:59:23Z</time>
      </trkpt>
      <trkpt lat="45.90869" lon="6.36604">
        <ele>752</ele>
        <time>2014-08-20T10:59:34Z</time>
      </trkpt>
      <trkpt lat="45.90739" lon="6.36368">
        <ele>746</ele>
        <time>2014-08-20T10:59:44Z</time>
      </trkpt>
      <trkpt lat="45.90739" lon="6.36368">
        <ele>738</ele>
        <time>2014-08-20T10:59:54Z</time>
      </trkpt>
      <trkpt lat="45.90584" lon="6.3619">
        <ele>738</ele>
        <time>2014-08-20T11:00:04Z</time>
      </trkpt>
      <trkpt lat="45.90584" lon="6.3619">
        <ele>738</ele>
        <time>2014-08-20T11:00:14Z</time>
      </trkpt>
      <trkpt lat="45.90584" lon="6.3619">
        <ele>722</ele>
        <time>2014-08-20T11:00:25Z</time>
      </trkpt>
      <trkpt lat="45.90584" lon="6.3619">
        <ele>718</ele>
        <time>2014-08-20T11:00:35Z</time>
      </trkpt>
      <trkpt lat="45.90584" lon="6.3619">
        <ele>708</ele>
        <time>2014-08-20T11:00:45Z</time>
      </trkpt>
      <trkpt lat="45.90241" lon="6.35506">
        <ele>698</ele>
        <time>2014-08-20T11:00:55Z</time>
      </trkpt>
      <trkpt lat="45.90118" lon="6.35276">
        <ele>692</ele>
        <time>2014-08-20T11:01:05Z</time>
      </trkpt>
      <trkpt lat="45.90118" lon="6.35276">
        <ele>688</ele>
        <time>2014-08-20T11:01:15Z</time>
      </trkpt>
      <trkpt lat="45.89985" lon="6.35021">
        <ele>674</ele>
        <time>2014-08-20T11:01:25Z</time>
      </trkpt>
      <trkpt lat="45.89985" lon="6.35021">
        <ele>664</ele>
        <time>2014-08-20T11:01:35Z</time>
      </trkpt>
      <trkpt lat="45.8988" lon="6.34755">
        <ele>648</ele>
        <time>2014-08-20T11:01:45Z</time>
      </trkpt>
      <trkpt lat="45.89769" lon="6.34493">
        <ele>642</ele>
        <time>2014-08-20T11:01:56Z</time>
      </trkpt>
      <trkpt lat="45.89769" lon="6.34493">
        <ele>638</ele>
        <time>2014-08-20T11:02:06Z</time>
      </trkpt>
      <trkpt lat="45.89662" lon="6.34281">
        <ele>638</ele>
        <time>2014-08-20T11:02:16Z</time>
      </trkpt>
      <trkpt lat="45.89662" lon="6.34281">
        <ele>638</ele>
        <time>2014-08-20T11:02:26Z</time>
      </trkpt>
      <trkpt lat="45.89573" lon="6.34111">
        <ele>638</ele>
        <time>2014-08-20T11:02:36Z</time>
      </trkpt>
      <trkpt lat="45.89573" lon="6.34111">
        <ele>628</ele>
        <time>2014-08-20T11:02:46Z</time>
      </trkpt>
      <trkpt lat="45.89492" lon="6.33957">
        <ele>628</ele>
        <time>2014-08-20T11:02:56Z</time>
      </trkpt>
      <trkpt lat="45.89492" lon="6.33957">
        <ele>628</ele>
        <time>2014-08-20T11:03:06Z</time>
      </trkpt>
      <trkpt lat="45.89492" lon="6.33957">
        <ele>624</ele>
        <time>2014-08-20T11:03:16Z</time>
      </trkpt>
      <trkpt lat="45.89492" lon="6.33957">
        <ele>624</ele>
        <time>2014-08-20T11:03:26Z</time>
      </trkpt>
      <trkpt lat="45.89231" lon="6.33463">
        <ele>618</ele>
        <time>2014-08-20T11:03:37Z</time>
      </trkpt>
      <trkpt lat="45.89231" lon="6.33463">
        <ele>618</ele>
        <time>2014-08-20T11:03:47Z</time>
      </trkpt>
      <trkpt lat="45.89137" lon="6.33284">
        <ele>618</ele>
        <time>2014-08-20T11:03:58Z</time>
      </trkpt>
      <trkpt lat="45.88921" lon="6.33177">
        <ele>618</ele>
        <time>2014-08-20T11:04:27Z</time>
      </trkpt>
      <trkpt lat="45.88921" lon="6.33177">
        <ele>618</ele>
        <time>2014-08-20T11:04:37Z</time>
      </trkpt>
      <trkpt lat="45.8881" lon="6.33083">
        <ele>614</ele>
        <time>2014-08-20T11:04:47Z</time>
      </trkpt>
      <trkpt lat="45.88672" lon="6.3297">
        <ele>610</ele>
        <time>2014-08-20T11:04:57Z</time>
      </trkpt>
      <trkpt lat="45.88672" lon="6.3297">
        <ele>610</ele>
        <time>2014-08-20T11:05:07Z</time>
      </trkpt>
      <trkpt lat="45.88549" lon="6.3286">
        <ele>606</ele>
        <time>2014-08-20T11:05:18Z</time>
      </trkpt>
      <trkpt lat="45.88438" lon="6.32765">
        <ele>606</ele>
        <time>2014-08-20T11:05:29Z</time>
      </trkpt>
      <trkpt lat="45.88438" lon="6.32765">
        <ele>606</ele>
        <time>2014-08-20T11:05:39Z</time>
      </trkpt>
      <trkpt lat="45.88336" lon="6.3268">
        <ele>602</ele>
        <time>2014-08-20T11:05:50Z</time>
      </trkpt>
      <trkpt lat="45.88275" lon="6.32579">
        <ele>602</ele>
        <time>2014-08-20T11:06:01Z</time>
      </trkpt>
      <trkpt lat="45.88275" lon="6.32579">
        <ele>598</ele>
        <time>2014-08-20T11:06:03Z</time>
      </trkpt>
      <trkpt lat="45.88235" lon="6.32306">
        <ele>598</ele>
        <time>2014-08-20T11:06:51Z</time>
      </trkpt>
      <trkpt lat="45.88374" lon="6.32269">
        <ele>600</ele>
        <time>2014-08-20T15:29:24Z</time>
      </trkpt>
      <trkpt lat="45.88386" lon="6.32285">
        <ele>600</ele>
        <time>2014-08-20T15:29:25Z</time>
      </trkpt>
    </trkseg>
  </trk>
</gpx>